<?xml version="1.0" encoding="UTF-8" standalone="no" ?>
<gpx xmlns="http://www.topografix.com/GPX/1/1" xmlns:xsi="http://www.w3.org/2001/XMLSchema-instance" xsi:schemaLocation="http://www.topografix.com/GPX/1/1 http://www.topografix.com/GPX/1/1/gpx.xsd" version="1.1" creator="VisuGPX - https://www.visugpx.com">
  <metadata>
    <name>Bouconne 161104</name>
    <desc><![CDATA[Bouconne Lasserre itinéraire touristique]]></desc>
  </metadata>
  <trk>
    <name><![CDATA[Bouconne 161104_1]]></name>
    <trkseg>
      <trkpt lat="43.61406" lon="1.19844">
        <ele>230</ele>
        <time>2016-11-04T09:54:08Z</time>
      </trkpt>
      <trkpt lat="43.61403" lon="1.19845">
        <ele>230</ele>
        <time>2016-11-04T09:54:13Z</time>
      </trkpt>
      <trkpt lat="43.61394" lon="1.19848">
        <ele>230</ele>
        <time>2016-11-04T09:54:18Z</time>
      </trkpt>
      <trkpt lat="43.6139" lon="1.19847">
        <ele>230</ele>
        <time>2016-11-04T09:54:23Z</time>
      </trkpt>
      <trkpt lat="43.61389" lon="1.19846">
        <ele>230</ele>
        <time>2016-11-04T09:54:28Z</time>
      </trkpt>
      <trkpt lat="43.61386" lon="1.19842">
        <ele>230</ele>
        <time>2016-11-04T09:54:33Z</time>
      </trkpt>
      <trkpt lat="43.61386" lon="1.19835">
        <ele>230</ele>
        <time>2016-11-04T09:54:38Z</time>
      </trkpt>
      <trkpt lat="43.61385" lon="1.19832">
        <ele>230</ele>
        <time>2016-11-04T09:54:43Z</time>
      </trkpt>
      <trkpt lat="43.61385" lon="1.19832">
        <ele>230</ele>
        <time>2016-11-04T09:54:48Z</time>
      </trkpt>
      <trkpt lat="43.61383" lon="1.19832">
        <ele>230</ele>
        <time>2016-11-04T09:54:53Z</time>
      </trkpt>
      <trkpt lat="43.61379" lon="1.19827">
        <ele>230</ele>
        <time>2016-11-04T09:54:58Z</time>
      </trkpt>
      <trkpt lat="43.61376" lon="1.19829">
        <ele>230</ele>
        <time>2016-11-04T09:55:03Z</time>
      </trkpt>
      <trkpt lat="43.61376" lon="1.19828">
        <ele>230</ele>
        <time>2016-11-04T09:55:08Z</time>
      </trkpt>
      <trkpt lat="43.61375" lon="1.19829">
        <ele>237</ele>
        <time>2016-11-04T09:55:13Z</time>
      </trkpt>
      <trkpt lat="43.61373" lon="1.19829">
        <ele>237</ele>
        <time>2016-11-04T09:55:18Z</time>
      </trkpt>
      <trkpt lat="43.61372" lon="1.1983">
        <ele>237</ele>
        <time>2016-11-04T09:55:23Z</time>
      </trkpt>
      <trkpt lat="43.61366" lon="1.19828">
        <ele>237</ele>
        <time>2016-11-04T09:55:28Z</time>
      </trkpt>
      <trkpt lat="43.61361" lon="1.19825">
        <ele>237</ele>
        <time>2016-11-04T09:55:33Z</time>
      </trkpt>
      <trkpt lat="43.61357" lon="1.19825">
        <ele>237</ele>
        <time>2016-11-04T09:55:38Z</time>
      </trkpt>
      <trkpt lat="43.61352" lon="1.19824">
        <ele>237</ele>
        <time>2016-11-04T09:55:43Z</time>
      </trkpt>
      <trkpt lat="43.61342" lon="1.1982">
        <ele>237</ele>
        <time>2016-11-04T09:55:48Z</time>
      </trkpt>
      <trkpt lat="43.61331" lon="1.19818">
        <ele>237</ele>
        <time>2016-11-04T09:55:53Z</time>
      </trkpt>
      <trkpt lat="43.61328" lon="1.19823">
        <ele>237</ele>
        <time>2016-11-04T09:55:58Z</time>
      </trkpt>
      <trkpt lat="43.61326" lon="1.19829">
        <ele>237</ele>
        <time>2016-11-04T09:56:03Z</time>
      </trkpt>
      <trkpt lat="43.61321" lon="1.19841">
        <ele>237</ele>
        <time>2016-11-04T09:56:08Z</time>
      </trkpt>
      <trkpt lat="43.61314" lon="1.19854">
        <ele>237</ele>
        <time>2016-11-04T09:56:13Z</time>
      </trkpt>
      <trkpt lat="43.61311" lon="1.19862">
        <ele>237</ele>
        <time>2016-11-04T09:56:18Z</time>
      </trkpt>
      <trkpt lat="43.61307" lon="1.19869">
        <ele>237</ele>
        <time>2016-11-04T09:56:23Z</time>
      </trkpt>
      <trkpt lat="43.61304" lon="1.19878">
        <ele>235</ele>
        <time>2016-11-04T09:56:28Z</time>
      </trkpt>
      <trkpt lat="43.61302" lon="1.19886">
        <ele>235</ele>
        <time>2016-11-04T09:56:33Z</time>
      </trkpt>
      <trkpt lat="43.61299" lon="1.19896">
        <ele>235</ele>
        <time>2016-11-04T09:56:38Z</time>
      </trkpt>
      <trkpt lat="43.61295" lon="1.19907">
        <ele>235</ele>
        <time>2016-11-04T09:56:43Z</time>
      </trkpt>
      <trkpt lat="43.61293" lon="1.19914">
        <ele>235</ele>
        <time>2016-11-04T09:56:48Z</time>
      </trkpt>
      <trkpt lat="43.61289" lon="1.19922">
        <ele>239</ele>
        <time>2016-11-04T09:56:53Z</time>
      </trkpt>
      <trkpt lat="43.61285" lon="1.19931">
        <ele>239</ele>
        <time>2016-11-04T09:56:58Z</time>
      </trkpt>
      <trkpt lat="43.61281" lon="1.1994">
        <ele>239</ele>
        <time>2016-11-04T09:57:03Z</time>
      </trkpt>
      <trkpt lat="43.61275" lon="1.19946">
        <ele>239</ele>
        <time>2016-11-04T09:57:08Z</time>
      </trkpt>
      <trkpt lat="43.61271" lon="1.19953">
        <ele>239</ele>
        <time>2016-11-04T09:57:13Z</time>
      </trkpt>
      <trkpt lat="43.61266" lon="1.19965">
        <ele>238</ele>
        <time>2016-11-04T09:57:18Z</time>
      </trkpt>
      <trkpt lat="43.61263" lon="1.19974">
        <ele>238</ele>
        <time>2016-11-04T09:57:23Z</time>
      </trkpt>
      <trkpt lat="43.6126" lon="1.1998">
        <ele>238</ele>
        <time>2016-11-04T09:57:28Z</time>
      </trkpt>
      <trkpt lat="43.6126" lon="1.19986">
        <ele>238</ele>
        <time>2016-11-04T09:57:33Z</time>
      </trkpt>
      <trkpt lat="43.61257" lon="1.19991">
        <ele>238</ele>
        <time>2016-11-04T09:57:38Z</time>
      </trkpt>
      <trkpt lat="43.61254" lon="1.20001">
        <ele>238</ele>
        <time>2016-11-04T09:57:43Z</time>
      </trkpt>
      <trkpt lat="43.61249" lon="1.20008">
        <ele>238</ele>
        <time>2016-11-04T09:57:48Z</time>
      </trkpt>
      <trkpt lat="43.61246" lon="1.20016">
        <ele>238</ele>
        <time>2016-11-04T09:57:53Z</time>
      </trkpt>
      <trkpt lat="43.61243" lon="1.20024">
        <ele>238</ele>
        <time>2016-11-04T09:57:58Z</time>
      </trkpt>
      <trkpt lat="43.6124" lon="1.20032">
        <ele>238</ele>
        <time>2016-11-04T09:58:03Z</time>
      </trkpt>
      <trkpt lat="43.61237" lon="1.20041">
        <ele>238</ele>
        <time>2016-11-04T09:58:08Z</time>
      </trkpt>
      <trkpt lat="43.61233" lon="1.20054">
        <ele>237</ele>
        <time>2016-11-04T09:58:13Z</time>
      </trkpt>
      <trkpt lat="43.61229" lon="1.20061">
        <ele>237</ele>
        <time>2016-11-04T09:58:18Z</time>
      </trkpt>
      <trkpt lat="43.61223" lon="1.20073">
        <ele>237</ele>
        <time>2016-11-04T09:58:23Z</time>
      </trkpt>
      <trkpt lat="43.6122" lon="1.20078">
        <ele>237</ele>
        <time>2016-11-04T09:58:28Z</time>
      </trkpt>
      <trkpt lat="43.61215" lon="1.20087">
        <ele>237</ele>
        <time>2016-11-04T09:58:33Z</time>
      </trkpt>
      <trkpt lat="43.6121" lon="1.20097">
        <ele>237</ele>
        <time>2016-11-04T09:58:38Z</time>
      </trkpt>
      <trkpt lat="43.61207" lon="1.20106">
        <ele>244</ele>
        <time>2016-11-04T09:58:43Z</time>
      </trkpt>
      <trkpt lat="43.61203" lon="1.20114">
        <ele>244</ele>
        <time>2016-11-04T09:58:48Z</time>
      </trkpt>
      <trkpt lat="43.61199" lon="1.20124">
        <ele>244</ele>
        <time>2016-11-04T09:58:53Z</time>
      </trkpt>
      <trkpt lat="43.61196" lon="1.20128">
        <ele>240</ele>
        <time>2016-11-04T09:58:58Z</time>
      </trkpt>
      <trkpt lat="43.61191" lon="1.2014">
        <ele>240</ele>
        <time>2016-11-04T09:59:03Z</time>
      </trkpt>
      <trkpt lat="43.61188" lon="1.20145">
        <ele>240</ele>
        <time>2016-11-04T09:59:08Z</time>
      </trkpt>
      <trkpt lat="43.61184" lon="1.20155">
        <ele>240</ele>
        <time>2016-11-04T09:59:13Z</time>
      </trkpt>
      <trkpt lat="43.61183" lon="1.20163">
        <ele>240</ele>
        <time>2016-11-04T09:59:18Z</time>
      </trkpt>
      <trkpt lat="43.61181" lon="1.20172">
        <ele>240</ele>
        <time>2016-11-04T09:59:23Z</time>
      </trkpt>
      <trkpt lat="43.6118" lon="1.20175">
        <ele>240</ele>
        <time>2016-11-04T09:59:28Z</time>
      </trkpt>
      <trkpt lat="43.61179" lon="1.20176">
        <ele>240</ele>
        <time>2016-11-04T09:59:33Z</time>
      </trkpt>
      <trkpt lat="43.61177" lon="1.20183">
        <ele>240</ele>
        <time>2016-11-04T09:59:38Z</time>
      </trkpt>
      <trkpt lat="43.61173" lon="1.20186">
        <ele>240</ele>
        <time>2016-11-04T09:59:43Z</time>
      </trkpt>
      <trkpt lat="43.6117" lon="1.20191">
        <ele>240</ele>
        <time>2016-11-04T09:59:48Z</time>
      </trkpt>
      <trkpt lat="43.61167" lon="1.20198">
        <ele>240</ele>
        <time>2016-11-04T09:59:53Z</time>
      </trkpt>
      <trkpt lat="43.61157" lon="1.20206">
        <ele>240</ele>
        <time>2016-11-04T09:59:58Z</time>
      </trkpt>
      <trkpt lat="43.61149" lon="1.20213">
        <ele>235</ele>
        <time>2016-11-04T10:00:03Z</time>
      </trkpt>
      <trkpt lat="43.61145" lon="1.20217">
        <ele>235</ele>
        <time>2016-11-04T10:00:08Z</time>
      </trkpt>
      <trkpt lat="43.61138" lon="1.20219">
        <ele>235</ele>
        <time>2016-11-04T10:00:13Z</time>
      </trkpt>
      <trkpt lat="43.61131" lon="1.20227">
        <ele>235</ele>
        <time>2016-11-04T10:00:18Z</time>
      </trkpt>
      <trkpt lat="43.61124" lon="1.20233">
        <ele>235</ele>
        <time>2016-11-04T10:00:23Z</time>
      </trkpt>
      <trkpt lat="43.61118" lon="1.20235">
        <ele>235</ele>
        <time>2016-11-04T10:00:28Z</time>
      </trkpt>
      <trkpt lat="43.6111" lon="1.20238">
        <ele>235</ele>
        <time>2016-11-04T10:00:33Z</time>
      </trkpt>
      <trkpt lat="43.61099" lon="1.20243">
        <ele>235</ele>
        <time>2016-11-04T10:00:38Z</time>
      </trkpt>
      <trkpt lat="43.6109" lon="1.20248">
        <ele>235</ele>
        <time>2016-11-04T10:00:43Z</time>
      </trkpt>
      <trkpt lat="43.61085" lon="1.20249">
        <ele>235</ele>
        <time>2016-11-04T10:00:48Z</time>
      </trkpt>
      <trkpt lat="43.61079" lon="1.2025">
        <ele>235</ele>
        <time>2016-11-04T10:00:53Z</time>
      </trkpt>
      <trkpt lat="43.61072" lon="1.20256">
        <ele>235</ele>
        <time>2016-11-04T10:00:58Z</time>
      </trkpt>
      <trkpt lat="43.6107" lon="1.2026">
        <ele>235</ele>
        <time>2016-11-04T10:01:03Z</time>
      </trkpt>
      <trkpt lat="43.61066" lon="1.20262">
        <ele>235</ele>
        <time>2016-11-04T10:01:08Z</time>
      </trkpt>
      <trkpt lat="43.61062" lon="1.20265">
        <ele>235</ele>
        <time>2016-11-04T10:01:13Z</time>
      </trkpt>
      <trkpt lat="43.61055" lon="1.20273">
        <ele>235</ele>
        <time>2016-11-04T10:01:18Z</time>
      </trkpt>
      <trkpt lat="43.61047" lon="1.20278">
        <ele>235</ele>
        <time>2016-11-04T10:01:23Z</time>
      </trkpt>
      <trkpt lat="43.61041" lon="1.20283">
        <ele>238</ele>
        <time>2016-11-04T10:01:28Z</time>
      </trkpt>
      <trkpt lat="43.61034" lon="1.20284">
        <ele>238</ele>
        <time>2016-11-04T10:01:33Z</time>
      </trkpt>
      <trkpt lat="43.61029" lon="1.20292">
        <ele>231</ele>
        <time>2016-11-04T10:01:38Z</time>
      </trkpt>
      <trkpt lat="43.61024" lon="1.20297">
        <ele>231</ele>
        <time>2016-11-04T10:01:43Z</time>
      </trkpt>
      <trkpt lat="43.61018" lon="1.20305">
        <ele>231</ele>
        <time>2016-11-04T10:01:48Z</time>
      </trkpt>
      <trkpt lat="43.61013" lon="1.20319">
        <ele>231</ele>
        <time>2016-11-04T10:01:53Z</time>
      </trkpt>
      <trkpt lat="43.61008" lon="1.20326">
        <ele>231</ele>
        <time>2016-11-04T10:01:58Z</time>
      </trkpt>
      <trkpt lat="43.61003" lon="1.20335">
        <ele>231</ele>
        <time>2016-11-04T10:02:03Z</time>
      </trkpt>
      <trkpt lat="43.61" lon="1.20342">
        <ele>231</ele>
        <time>2016-11-04T10:02:08Z</time>
      </trkpt>
      <trkpt lat="43.60998" lon="1.20355">
        <ele>231</ele>
        <time>2016-11-04T10:02:13Z</time>
      </trkpt>
      <trkpt lat="43.60993" lon="1.20365">
        <ele>231</ele>
        <time>2016-11-04T10:02:18Z</time>
      </trkpt>
      <trkpt lat="43.60989" lon="1.20371">
        <ele>231</ele>
        <time>2016-11-04T10:02:23Z</time>
      </trkpt>
      <trkpt lat="43.60986" lon="1.20382">
        <ele>226</ele>
        <time>2016-11-04T10:02:28Z</time>
      </trkpt>
      <trkpt lat="43.60979" lon="1.20391">
        <ele>226</ele>
        <time>2016-11-04T10:02:33Z</time>
      </trkpt>
      <trkpt lat="43.60969" lon="1.20386">
        <ele>226</ele>
        <time>2016-11-04T10:02:38Z</time>
      </trkpt>
      <trkpt lat="43.6096" lon="1.20388">
        <ele>226</ele>
        <time>2016-11-04T10:02:43Z</time>
      </trkpt>
      <trkpt lat="43.60954" lon="1.20389">
        <ele>227</ele>
        <time>2016-11-04T10:02:48Z</time>
      </trkpt>
      <trkpt lat="43.60947" lon="1.20386">
        <ele>227</ele>
        <time>2016-11-04T10:02:53Z</time>
      </trkpt>
      <trkpt lat="43.60938" lon="1.20384">
        <ele>227</ele>
        <time>2016-11-04T10:02:58Z</time>
      </trkpt>
      <trkpt lat="43.60931" lon="1.20385">
        <ele>227</ele>
        <time>2016-11-04T10:03:03Z</time>
      </trkpt>
      <trkpt lat="43.60924" lon="1.20386">
        <ele>227</ele>
        <time>2016-11-04T10:03:08Z</time>
      </trkpt>
      <trkpt lat="43.60917" lon="1.20388">
        <ele>227</ele>
        <time>2016-11-04T10:03:13Z</time>
      </trkpt>
      <trkpt lat="43.60906" lon="1.20393">
        <ele>227</ele>
        <time>2016-11-04T10:03:18Z</time>
      </trkpt>
      <trkpt lat="43.60899" lon="1.20391">
        <ele>227</ele>
        <time>2016-11-04T10:03:23Z</time>
      </trkpt>
      <trkpt lat="43.60891" lon="1.20391">
        <ele>227</ele>
        <time>2016-11-04T10:03:28Z</time>
      </trkpt>
      <trkpt lat="43.60883" lon="1.20392">
        <ele>227</ele>
        <time>2016-11-04T10:03:33Z</time>
      </trkpt>
      <trkpt lat="43.60876" lon="1.20394">
        <ele>227</ele>
        <time>2016-11-04T10:03:38Z</time>
      </trkpt>
      <trkpt lat="43.60869" lon="1.20399">
        <ele>222</ele>
        <time>2016-11-04T10:03:43Z</time>
      </trkpt>
      <trkpt lat="43.60861" lon="1.20402">
        <ele>222</ele>
        <time>2016-11-04T10:03:48Z</time>
      </trkpt>
      <trkpt lat="43.60853" lon="1.20403">
        <ele>222</ele>
        <time>2016-11-04T10:03:53Z</time>
      </trkpt>
      <trkpt lat="43.60844" lon="1.20406">
        <ele>222</ele>
        <time>2016-11-04T10:03:58Z</time>
      </trkpt>
      <trkpt lat="43.60837" lon="1.20411">
        <ele>222</ele>
        <time>2016-11-04T10:04:03Z</time>
      </trkpt>
      <trkpt lat="43.6083" lon="1.20415">
        <ele>222</ele>
        <time>2016-11-04T10:04:08Z</time>
      </trkpt>
      <trkpt lat="43.60824" lon="1.2042">
        <ele>222</ele>
        <time>2016-11-04T10:04:13Z</time>
      </trkpt>
      <trkpt lat="43.60816" lon="1.20422">
        <ele>222</ele>
        <time>2016-11-04T10:04:18Z</time>
      </trkpt>
      <trkpt lat="43.60808" lon="1.2042">
        <ele>222</ele>
        <time>2016-11-04T10:04:23Z</time>
      </trkpt>
      <trkpt lat="43.60802" lon="1.20422">
        <ele>222</ele>
        <time>2016-11-04T10:04:28Z</time>
      </trkpt>
      <trkpt lat="43.60795" lon="1.20424">
        <ele>222</ele>
        <time>2016-11-04T10:04:33Z</time>
      </trkpt>
      <trkpt lat="43.60788" lon="1.20422">
        <ele>219</ele>
        <time>2016-11-04T10:04:38Z</time>
      </trkpt>
      <trkpt lat="43.60781" lon="1.20419">
        <ele>219</ele>
        <time>2016-11-04T10:04:43Z</time>
      </trkpt>
      <trkpt lat="43.60773" lon="1.20411">
        <ele>219</ele>
        <time>2016-11-04T10:04:48Z</time>
      </trkpt>
      <trkpt lat="43.60763" lon="1.20405">
        <ele>219</ele>
        <time>2016-11-04T10:04:53Z</time>
      </trkpt>
      <trkpt lat="43.60755" lon="1.20402">
        <ele>219</ele>
        <time>2016-11-04T10:04:58Z</time>
      </trkpt>
      <trkpt lat="43.60746" lon="1.20401">
        <ele>219</ele>
        <time>2016-11-04T10:05:03Z</time>
      </trkpt>
      <trkpt lat="43.60742" lon="1.20398">
        <ele>219</ele>
        <time>2016-11-04T10:05:08Z</time>
      </trkpt>
      <trkpt lat="43.60738" lon="1.20398">
        <ele>219</ele>
        <time>2016-11-04T10:05:13Z</time>
      </trkpt>
      <trkpt lat="43.60732" lon="1.20394">
        <ele>219</ele>
        <time>2016-11-04T10:05:18Z</time>
      </trkpt>
      <trkpt lat="43.60721" lon="1.20387">
        <ele>219</ele>
        <time>2016-11-04T10:05:23Z</time>
      </trkpt>
      <trkpt lat="43.60713" lon="1.20381">
        <ele>219</ele>
        <time>2016-11-04T10:05:28Z</time>
      </trkpt>
      <trkpt lat="43.607" lon="1.20373">
        <ele>214</ele>
        <time>2016-11-04T10:05:33Z</time>
      </trkpt>
      <trkpt lat="43.60689" lon="1.20368">
        <ele>214</ele>
        <time>2016-11-04T10:05:38Z</time>
      </trkpt>
      <trkpt lat="43.60684" lon="1.20363">
        <ele>214</ele>
        <time>2016-11-04T10:05:43Z</time>
      </trkpt>
      <trkpt lat="43.60677" lon="1.20362">
        <ele>214</ele>
        <time>2016-11-04T10:05:48Z</time>
      </trkpt>
      <trkpt lat="43.60671" lon="1.2036">
        <ele>214</ele>
        <time>2016-11-04T10:05:53Z</time>
      </trkpt>
      <trkpt lat="43.60664" lon="1.20356">
        <ele>214</ele>
        <time>2016-11-04T10:05:58Z</time>
      </trkpt>
      <trkpt lat="43.60658" lon="1.2035">
        <ele>214</ele>
        <time>2016-11-04T10:06:03Z</time>
      </trkpt>
      <trkpt lat="43.60652" lon="1.20343">
        <ele>214</ele>
        <time>2016-11-04T10:06:08Z</time>
      </trkpt>
      <trkpt lat="43.60645" lon="1.20337">
        <ele>214</ele>
        <time>2016-11-04T10:06:13Z</time>
      </trkpt>
      <trkpt lat="43.60639" lon="1.20328">
        <ele>214</ele>
        <time>2016-11-04T10:06:18Z</time>
      </trkpt>
      <trkpt lat="43.60633" lon="1.2032">
        <ele>214</ele>
        <time>2016-11-04T10:06:23Z</time>
      </trkpt>
      <trkpt lat="43.60628" lon="1.20314">
        <ele>214</ele>
        <time>2016-11-04T10:06:28Z</time>
      </trkpt>
      <trkpt lat="43.60624" lon="1.20311">
        <ele>206</ele>
        <time>2016-11-04T10:06:33Z</time>
      </trkpt>
      <trkpt lat="43.60616" lon="1.20305">
        <ele>206</ele>
        <time>2016-11-04T10:06:38Z</time>
      </trkpt>
      <trkpt lat="43.60609" lon="1.20297">
        <ele>206</ele>
        <time>2016-11-04T10:06:43Z</time>
      </trkpt>
      <trkpt lat="43.60604" lon="1.20289">
        <ele>212</ele>
        <time>2016-11-04T10:06:48Z</time>
      </trkpt>
      <trkpt lat="43.60597" lon="1.20279">
        <ele>212</ele>
        <time>2016-11-04T10:06:53Z</time>
      </trkpt>
      <trkpt lat="43.60588" lon="1.20267">
        <ele>212</ele>
        <time>2016-11-04T10:06:58Z</time>
      </trkpt>
      <trkpt lat="43.60583" lon="1.20256">
        <ele>212</ele>
        <time>2016-11-04T10:07:03Z</time>
      </trkpt>
      <trkpt lat="43.60579" lon="1.20244">
        <ele>212</ele>
        <time>2016-11-04T10:07:08Z</time>
      </trkpt>
      <trkpt lat="43.60576" lon="1.20235">
        <ele>212</ele>
        <time>2016-11-04T10:07:13Z</time>
      </trkpt>
      <trkpt lat="43.60571" lon="1.20227">
        <ele>212</ele>
        <time>2016-11-04T10:07:18Z</time>
      </trkpt>
      <trkpt lat="43.60566" lon="1.20219">
        <ele>212</ele>
        <time>2016-11-04T10:07:23Z</time>
      </trkpt>
      <trkpt lat="43.60561" lon="1.20208">
        <ele>218</ele>
        <time>2016-11-04T10:07:28Z</time>
      </trkpt>
      <trkpt lat="43.60557" lon="1.20198">
        <ele>218</ele>
        <time>2016-11-04T10:07:33Z</time>
      </trkpt>
      <trkpt lat="43.60553" lon="1.2019">
        <ele>218</ele>
        <time>2016-11-04T10:07:38Z</time>
      </trkpt>
      <trkpt lat="43.6055" lon="1.20177">
        <ele>218</ele>
        <time>2016-11-04T10:07:43Z</time>
      </trkpt>
      <trkpt lat="43.60549" lon="1.20166">
        <ele>218</ele>
        <time>2016-11-04T10:07:48Z</time>
      </trkpt>
      <trkpt lat="43.60547" lon="1.20156">
        <ele>218</ele>
        <time>2016-11-04T10:07:53Z</time>
      </trkpt>
      <trkpt lat="43.60544" lon="1.20144">
        <ele>218</ele>
        <time>2016-11-04T10:07:58Z</time>
      </trkpt>
      <trkpt lat="43.6054" lon="1.2013">
        <ele>209</ele>
        <time>2016-11-04T10:08:03Z</time>
      </trkpt>
      <trkpt lat="43.60536" lon="1.20123">
        <ele>216</ele>
        <time>2016-11-04T10:08:08Z</time>
      </trkpt>
      <trkpt lat="43.60531" lon="1.20114">
        <ele>216</ele>
        <time>2016-11-04T10:08:13Z</time>
      </trkpt>
      <trkpt lat="43.60525" lon="1.20106">
        <ele>216</ele>
        <time>2016-11-04T10:08:18Z</time>
      </trkpt>
      <trkpt lat="43.60518" lon="1.201">
        <ele>216</ele>
        <time>2016-11-04T10:08:23Z</time>
      </trkpt>
      <trkpt lat="43.6051" lon="1.20094">
        <ele>216</ele>
        <time>2016-11-04T10:08:28Z</time>
      </trkpt>
      <trkpt lat="43.60505" lon="1.20089">
        <ele>216</ele>
        <time>2016-11-04T10:08:33Z</time>
      </trkpt>
      <trkpt lat="43.60499" lon="1.20082">
        <ele>216</ele>
        <time>2016-11-04T10:08:38Z</time>
      </trkpt>
      <trkpt lat="43.60495" lon="1.20077">
        <ele>216</ele>
        <time>2016-11-04T10:08:43Z</time>
      </trkpt>
      <trkpt lat="43.60488" lon="1.20071">
        <ele>216</ele>
        <time>2016-11-04T10:08:48Z</time>
      </trkpt>
      <trkpt lat="43.60483" lon="1.20065">
        <ele>216</ele>
        <time>2016-11-04T10:08:53Z</time>
      </trkpt>
      <trkpt lat="43.60477" lon="1.20058">
        <ele>216</ele>
        <time>2016-11-04T10:08:58Z</time>
      </trkpt>
      <trkpt lat="43.60472" lon="1.20053">
        <ele>216</ele>
        <time>2016-11-04T10:09:03Z</time>
      </trkpt>
      <trkpt lat="43.60466" lon="1.20046">
        <ele>216</ele>
        <time>2016-11-04T10:09:08Z</time>
      </trkpt>
      <trkpt lat="43.60461" lon="1.2004">
        <ele>222</ele>
        <time>2016-11-04T10:09:13Z</time>
      </trkpt>
      <trkpt lat="43.60455" lon="1.20032">
        <ele>214</ele>
        <time>2016-11-04T10:09:18Z</time>
      </trkpt>
      <trkpt lat="43.60449" lon="1.20024">
        <ele>214</ele>
        <time>2016-11-04T10:09:23Z</time>
      </trkpt>
      <trkpt lat="43.60444" lon="1.20014">
        <ele>214</ele>
        <time>2016-11-04T10:09:28Z</time>
      </trkpt>
      <trkpt lat="43.60437" lon="1.2">
        <ele>214</ele>
        <time>2016-11-04T10:09:33Z</time>
      </trkpt>
      <trkpt lat="43.60431" lon="1.19995">
        <ele>214</ele>
        <time>2016-11-04T10:09:38Z</time>
      </trkpt>
      <trkpt lat="43.60427" lon="1.19991">
        <ele>214</ele>
        <time>2016-11-04T10:09:43Z</time>
      </trkpt>
      <trkpt lat="43.60419" lon="1.19985">
        <ele>214</ele>
        <time>2016-11-04T10:09:48Z</time>
      </trkpt>
      <trkpt lat="43.60412" lon="1.19979">
        <ele>214</ele>
        <time>2016-11-04T10:09:53Z</time>
      </trkpt>
      <trkpt lat="43.60404" lon="1.19969">
        <ele>214</ele>
        <time>2016-11-04T10:09:58Z</time>
      </trkpt>
      <trkpt lat="43.60394" lon="1.19955">
        <ele>223</ele>
        <time>2016-11-04T10:10:03Z</time>
      </trkpt>
      <trkpt lat="43.6039" lon="1.19948">
        <ele>223</ele>
        <time>2016-11-04T10:10:08Z</time>
      </trkpt>
      <trkpt lat="43.60382" lon="1.19937">
        <ele>223</ele>
        <time>2016-11-04T10:10:13Z</time>
      </trkpt>
      <trkpt lat="43.60376" lon="1.1993">
        <ele>223</ele>
        <time>2016-11-04T10:10:18Z</time>
      </trkpt>
      <trkpt lat="43.6037" lon="1.19926">
        <ele>215</ele>
        <time>2016-11-04T10:10:23Z</time>
      </trkpt>
      <trkpt lat="43.60367" lon="1.19922">
        <ele>215</ele>
        <time>2016-11-04T10:10:28Z</time>
      </trkpt>
      <trkpt lat="43.60361" lon="1.19916">
        <ele>215</ele>
        <time>2016-11-04T10:10:33Z</time>
      </trkpt>
      <trkpt lat="43.60354" lon="1.19913">
        <ele>215</ele>
        <time>2016-11-04T10:10:38Z</time>
      </trkpt>
      <trkpt lat="43.60348" lon="1.19905">
        <ele>215</ele>
        <time>2016-11-04T10:10:43Z</time>
      </trkpt>
      <trkpt lat="43.60342" lon="1.19897">
        <ele>215</ele>
        <time>2016-11-04T10:10:48Z</time>
      </trkpt>
      <trkpt lat="43.60335" lon="1.19886">
        <ele>215</ele>
        <time>2016-11-04T10:10:53Z</time>
      </trkpt>
      <trkpt lat="43.60329" lon="1.19877">
        <ele>215</ele>
        <time>2016-11-04T10:10:58Z</time>
      </trkpt>
      <trkpt lat="43.60324" lon="1.19866">
        <ele>223</ele>
        <time>2016-11-04T10:11:03Z</time>
      </trkpt>
      <trkpt lat="43.60323" lon="1.19856">
        <ele>223</ele>
        <time>2016-11-04T10:11:08Z</time>
      </trkpt>
      <trkpt lat="43.60322" lon="1.19844">
        <ele>223</ele>
        <time>2016-11-04T10:11:13Z</time>
      </trkpt>
      <trkpt lat="43.6032" lon="1.19831">
        <ele>223</ele>
        <time>2016-11-04T10:11:18Z</time>
      </trkpt>
      <trkpt lat="43.60321" lon="1.19819">
        <ele>223</ele>
        <time>2016-11-04T10:11:23Z</time>
      </trkpt>
      <trkpt lat="43.60322" lon="1.19807">
        <ele>223</ele>
        <time>2016-11-04T10:11:28Z</time>
      </trkpt>
      <trkpt lat="43.60323" lon="1.19795">
        <ele>223</ele>
        <time>2016-11-04T10:11:33Z</time>
      </trkpt>
      <trkpt lat="43.60324" lon="1.19785">
        <ele>223</ele>
        <time>2016-11-04T10:11:38Z</time>
      </trkpt>
      <trkpt lat="43.60321" lon="1.1977">
        <ele>223</ele>
        <time>2016-11-04T10:11:43Z</time>
      </trkpt>
      <trkpt lat="43.60318" lon="1.19762">
        <ele>223</ele>
        <time>2016-11-04T10:11:48Z</time>
      </trkpt>
      <trkpt lat="43.60316" lon="1.19751">
        <ele>223</ele>
        <time>2016-11-04T10:11:53Z</time>
      </trkpt>
      <trkpt lat="43.60313" lon="1.19742">
        <ele>223</ele>
        <time>2016-11-04T10:11:58Z</time>
      </trkpt>
      <trkpt lat="43.60312" lon="1.1973">
        <ele>223</ele>
        <time>2016-11-04T10:12:03Z</time>
      </trkpt>
      <trkpt lat="43.60309" lon="1.1972">
        <ele>223</ele>
        <time>2016-11-04T10:12:08Z</time>
      </trkpt>
      <trkpt lat="43.60307" lon="1.19705">
        <ele>224</ele>
        <time>2016-11-04T10:12:13Z</time>
      </trkpt>
      <trkpt lat="43.60307" lon="1.19691">
        <ele>224</ele>
        <time>2016-11-04T10:12:18Z</time>
      </trkpt>
      <trkpt lat="43.60306" lon="1.19682">
        <ele>224</ele>
        <time>2016-11-04T10:12:23Z</time>
      </trkpt>
      <trkpt lat="43.60305" lon="1.19672">
        <ele>224</ele>
        <time>2016-11-04T10:12:28Z</time>
      </trkpt>
      <trkpt lat="43.60302" lon="1.19663">
        <ele>224</ele>
        <time>2016-11-04T10:12:33Z</time>
      </trkpt>
      <trkpt lat="43.60304" lon="1.19647">
        <ele>224</ele>
        <time>2016-11-04T10:12:38Z</time>
      </trkpt>
      <trkpt lat="43.60305" lon="1.19635">
        <ele>224</ele>
        <time>2016-11-04T10:12:43Z</time>
      </trkpt>
      <trkpt lat="43.60308" lon="1.19625">
        <ele>228</ele>
        <time>2016-11-04T10:12:48Z</time>
      </trkpt>
      <trkpt lat="43.60314" lon="1.19611">
        <ele>228</ele>
        <time>2016-11-04T10:12:53Z</time>
      </trkpt>
      <trkpt lat="43.60318" lon="1.19597">
        <ele>228</ele>
        <time>2016-11-04T10:12:58Z</time>
      </trkpt>
      <trkpt lat="43.6032" lon="1.19589">
        <ele>228</ele>
        <time>2016-11-04T10:13:03Z</time>
      </trkpt>
      <trkpt lat="43.60323" lon="1.19577">
        <ele>228</ele>
        <time>2016-11-04T10:13:08Z</time>
      </trkpt>
      <trkpt lat="43.60326" lon="1.19565">
        <ele>228</ele>
        <time>2016-11-04T10:13:13Z</time>
      </trkpt>
      <trkpt lat="43.60327" lon="1.19555">
        <ele>228</ele>
        <time>2016-11-04T10:13:18Z</time>
      </trkpt>
      <trkpt lat="43.60327" lon="1.19543">
        <ele>228</ele>
        <time>2016-11-04T10:13:23Z</time>
      </trkpt>
      <trkpt lat="43.60327" lon="1.19533">
        <ele>228</ele>
        <time>2016-11-04T10:13:28Z</time>
      </trkpt>
      <trkpt lat="43.60329" lon="1.19523">
        <ele>228</ele>
        <time>2016-11-04T10:13:33Z</time>
      </trkpt>
      <trkpt lat="43.60331" lon="1.19512">
        <ele>228</ele>
        <time>2016-11-04T10:13:38Z</time>
      </trkpt>
      <trkpt lat="43.60333" lon="1.19501">
        <ele>228</ele>
        <time>2016-11-04T10:13:43Z</time>
      </trkpt>
      <trkpt lat="43.60334" lon="1.1949">
        <ele>228</ele>
        <time>2016-11-04T10:13:48Z</time>
      </trkpt>
      <trkpt lat="43.60336" lon="1.1948">
        <ele>228</ele>
        <time>2016-11-04T10:13:53Z</time>
      </trkpt>
      <trkpt lat="43.60331" lon="1.19469">
        <ele>228</ele>
        <time>2016-11-04T10:13:58Z</time>
      </trkpt>
      <trkpt lat="43.60332" lon="1.19455">
        <ele>230</ele>
        <time>2016-11-04T10:14:03Z</time>
      </trkpt>
      <trkpt lat="43.60331" lon="1.19443">
        <ele>230</ele>
        <time>2016-11-04T10:14:08Z</time>
      </trkpt>
      <trkpt lat="43.60329" lon="1.19433">
        <ele>230</ele>
        <time>2016-11-04T10:14:13Z</time>
      </trkpt>
      <trkpt lat="43.60324" lon="1.19425">
        <ele>230</ele>
        <time>2016-11-04T10:14:18Z</time>
      </trkpt>
      <trkpt lat="43.60318" lon="1.19417">
        <ele>230</ele>
        <time>2016-11-04T10:14:23Z</time>
      </trkpt>
      <trkpt lat="43.60313" lon="1.1941">
        <ele>230</ele>
        <time>2016-11-04T10:14:28Z</time>
      </trkpt>
      <trkpt lat="43.60309" lon="1.19403">
        <ele>230</ele>
        <time>2016-11-04T10:14:33Z</time>
      </trkpt>
      <trkpt lat="43.60305" lon="1.19393">
        <ele>230</ele>
        <time>2016-11-04T10:14:38Z</time>
      </trkpt>
      <trkpt lat="43.60299" lon="1.19387">
        <ele>230</ele>
        <time>2016-11-04T10:14:43Z</time>
      </trkpt>
      <trkpt lat="43.60296" lon="1.19383">
        <ele>230</ele>
        <time>2016-11-04T10:14:48Z</time>
      </trkpt>
      <trkpt lat="43.6029" lon="1.19375">
        <ele>231</ele>
        <time>2016-11-04T10:14:53Z</time>
      </trkpt>
      <trkpt lat="43.60285" lon="1.19369">
        <ele>231</ele>
        <time>2016-11-04T10:14:58Z</time>
      </trkpt>
      <trkpt lat="43.60282" lon="1.19364">
        <ele>231</ele>
        <time>2016-11-04T10:15:03Z</time>
      </trkpt>
      <trkpt lat="43.6028" lon="1.19356">
        <ele>231</ele>
        <time>2016-11-04T10:15:08Z</time>
      </trkpt>
      <trkpt lat="43.60275" lon="1.19343">
        <ele>231</ele>
        <time>2016-11-04T10:15:13Z</time>
      </trkpt>
      <trkpt lat="43.60269" lon="1.19337">
        <ele>231</ele>
        <time>2016-11-04T10:15:18Z</time>
      </trkpt>
      <trkpt lat="43.60263" lon="1.19329">
        <ele>231</ele>
        <time>2016-11-04T10:15:23Z</time>
      </trkpt>
      <trkpt lat="43.60256" lon="1.1932">
        <ele>231</ele>
        <time>2016-11-04T10:15:28Z</time>
      </trkpt>
      <trkpt lat="43.60252" lon="1.19315">
        <ele>231</ele>
        <time>2016-11-04T10:15:33Z</time>
      </trkpt>
      <trkpt lat="43.60247" lon="1.19306">
        <ele>231</ele>
        <time>2016-11-04T10:15:38Z</time>
      </trkpt>
      <trkpt lat="43.60243" lon="1.19294">
        <ele>231</ele>
        <time>2016-11-04T10:15:43Z</time>
      </trkpt>
      <trkpt lat="43.60237" lon="1.19282">
        <ele>236</ele>
        <time>2016-11-04T10:15:48Z</time>
      </trkpt>
      <trkpt lat="43.60231" lon="1.19272">
        <ele>236</ele>
        <time>2016-11-04T10:15:53Z</time>
      </trkpt>
      <trkpt lat="43.60228" lon="1.19262">
        <ele>236</ele>
        <time>2016-11-04T10:15:58Z</time>
      </trkpt>
      <trkpt lat="43.60225" lon="1.19251">
        <ele>236</ele>
        <time>2016-11-04T10:16:03Z</time>
      </trkpt>
      <trkpt lat="43.6022" lon="1.1924">
        <ele>236</ele>
        <time>2016-11-04T10:16:08Z</time>
      </trkpt>
      <trkpt lat="43.60216" lon="1.19233">
        <ele>236</ele>
        <time>2016-11-04T10:16:13Z</time>
      </trkpt>
      <trkpt lat="43.60212" lon="1.19217">
        <ele>236</ele>
        <time>2016-11-04T10:16:18Z</time>
      </trkpt>
      <trkpt lat="43.6021" lon="1.19205">
        <ele>240</ele>
        <time>2016-11-04T10:16:23Z</time>
      </trkpt>
      <trkpt lat="43.60206" lon="1.19195">
        <ele>236</ele>
        <time>2016-11-04T10:16:28Z</time>
      </trkpt>
      <trkpt lat="43.60204" lon="1.19188">
        <ele>236</ele>
        <time>2016-11-04T10:16:33Z</time>
      </trkpt>
      <trkpt lat="43.60203" lon="1.19183">
        <ele>236</ele>
        <time>2016-11-04T10:16:38Z</time>
      </trkpt>
      <trkpt lat="43.602" lon="1.19182">
        <ele>236</ele>
        <time>2016-11-04T10:16:43Z</time>
      </trkpt>
      <trkpt lat="43.60205" lon="1.1918">
        <ele>236</ele>
        <time>2016-11-04T10:16:48Z</time>
      </trkpt>
      <trkpt lat="43.60204" lon="1.19179">
        <ele>236</ele>
        <time>2016-11-04T10:16:53Z</time>
      </trkpt>
      <trkpt lat="43.60203" lon="1.19179">
        <ele>236</ele>
        <time>2016-11-04T10:16:58Z</time>
      </trkpt>
      <trkpt lat="43.60203" lon="1.19179">
        <ele>236</ele>
        <time>2016-11-04T10:17:03Z</time>
      </trkpt>
      <trkpt lat="43.60204" lon="1.19179">
        <ele>236</ele>
        <time>2016-11-04T10:17:08Z</time>
      </trkpt>
      <trkpt lat="43.60204" lon="1.19179">
        <ele>236</ele>
        <time>2016-11-04T10:17:13Z</time>
      </trkpt>
      <trkpt lat="43.60204" lon="1.19179">
        <ele>236</ele>
        <time>2016-11-04T10:17:18Z</time>
      </trkpt>
      <trkpt lat="43.60203" lon="1.19179">
        <ele>236</ele>
        <time>2016-11-04T10:17:23Z</time>
      </trkpt>
      <trkpt lat="43.60203" lon="1.19179">
        <ele>236</ele>
        <time>2016-11-04T10:17:28Z</time>
      </trkpt>
      <trkpt lat="43.60203" lon="1.19179">
        <ele>236</ele>
        <time>2016-11-04T10:17:33Z</time>
      </trkpt>
      <trkpt lat="43.60203" lon="1.19179">
        <ele>236</ele>
        <time>2016-11-04T10:17:38Z</time>
      </trkpt>
      <trkpt lat="43.60205" lon="1.19179">
        <ele>236</ele>
        <time>2016-11-04T10:17:43Z</time>
      </trkpt>
      <trkpt lat="43.60206" lon="1.19179">
        <ele>236</ele>
        <time>2016-11-04T10:17:48Z</time>
      </trkpt>
      <trkpt lat="43.60207" lon="1.19179">
        <ele>236</ele>
        <time>2016-11-04T10:17:53Z</time>
      </trkpt>
      <trkpt lat="43.60208" lon="1.1918">
        <ele>236</ele>
        <time>2016-11-04T10:17:58Z</time>
      </trkpt>
      <trkpt lat="43.60208" lon="1.1918">
        <ele>236</ele>
        <time>2016-11-04T10:18:03Z</time>
      </trkpt>
      <trkpt lat="43.60205" lon="1.19177">
        <ele>236</ele>
        <time>2016-11-04T10:18:08Z</time>
      </trkpt>
      <trkpt lat="43.602" lon="1.19173">
        <ele>236</ele>
        <time>2016-11-04T10:18:13Z</time>
      </trkpt>
      <trkpt lat="43.60195" lon="1.19167">
        <ele>236</ele>
        <time>2016-11-04T10:18:18Z</time>
      </trkpt>
      <trkpt lat="43.60187" lon="1.1916">
        <ele>236</ele>
        <time>2016-11-04T10:18:23Z</time>
      </trkpt>
      <trkpt lat="43.60183" lon="1.19153">
        <ele>236</ele>
        <time>2016-11-04T10:18:28Z</time>
      </trkpt>
      <trkpt lat="43.60176" lon="1.19147">
        <ele>236</ele>
        <time>2016-11-04T10:18:33Z</time>
      </trkpt>
      <trkpt lat="43.60167" lon="1.1914">
        <ele>236</ele>
        <time>2016-11-04T10:18:38Z</time>
      </trkpt>
      <trkpt lat="43.60161" lon="1.19131">
        <ele>236</ele>
        <time>2016-11-04T10:18:43Z</time>
      </trkpt>
      <trkpt lat="43.60154" lon="1.19124">
        <ele>240</ele>
        <time>2016-11-04T10:18:48Z</time>
      </trkpt>
      <trkpt lat="43.60147" lon="1.19118">
        <ele>240</ele>
        <time>2016-11-04T10:18:53Z</time>
      </trkpt>
      <trkpt lat="43.6014" lon="1.1911">
        <ele>240</ele>
        <time>2016-11-04T10:18:58Z</time>
      </trkpt>
      <trkpt lat="43.60134" lon="1.19103">
        <ele>240</ele>
        <time>2016-11-04T10:19:03Z</time>
      </trkpt>
      <trkpt lat="43.60126" lon="1.19096">
        <ele>240</ele>
        <time>2016-11-04T10:19:08Z</time>
      </trkpt>
      <trkpt lat="43.60118" lon="1.1909">
        <ele>243</ele>
        <time>2016-11-04T10:19:13Z</time>
      </trkpt>
      <trkpt lat="43.60112" lon="1.19083">
        <ele>243</ele>
        <time>2016-11-04T10:19:18Z</time>
      </trkpt>
      <trkpt lat="43.60105" lon="1.19077">
        <ele>243</ele>
        <time>2016-11-04T10:19:23Z</time>
      </trkpt>
      <trkpt lat="43.60098" lon="1.19073">
        <ele>243</ele>
        <time>2016-11-04T10:19:28Z</time>
      </trkpt>
      <trkpt lat="43.60086" lon="1.19072">
        <ele>243</ele>
        <time>2016-11-04T10:19:33Z</time>
      </trkpt>
      <trkpt lat="43.60077" lon="1.1907">
        <ele>243</ele>
        <time>2016-11-04T10:19:38Z</time>
      </trkpt>
      <trkpt lat="43.60072" lon="1.19069">
        <ele>243</ele>
        <time>2016-11-04T10:19:43Z</time>
      </trkpt>
      <trkpt lat="43.60062" lon="1.19073">
        <ele>243</ele>
        <time>2016-11-04T10:19:48Z</time>
      </trkpt>
      <trkpt lat="43.60056" lon="1.19074">
        <ele>243</ele>
        <time>2016-11-04T10:19:53Z</time>
      </trkpt>
      <trkpt lat="43.60046" lon="1.19079">
        <ele>243</ele>
        <time>2016-11-04T10:19:58Z</time>
      </trkpt>
      <trkpt lat="43.60042" lon="1.19082">
        <ele>246</ele>
        <time>2016-11-04T10:20:03Z</time>
      </trkpt>
      <trkpt lat="43.60034" lon="1.19088">
        <ele>246</ele>
        <time>2016-11-04T10:20:08Z</time>
      </trkpt>
      <trkpt lat="43.60026" lon="1.1909">
        <ele>246</ele>
        <time>2016-11-04T10:20:13Z</time>
      </trkpt>
      <trkpt lat="43.60017" lon="1.19094">
        <ele>246</ele>
        <time>2016-11-04T10:20:18Z</time>
      </trkpt>
      <trkpt lat="43.60009" lon="1.19096">
        <ele>246</ele>
        <time>2016-11-04T10:20:23Z</time>
      </trkpt>
      <trkpt lat="43.59998" lon="1.191">
        <ele>246</ele>
        <time>2016-11-04T10:20:28Z</time>
      </trkpt>
      <trkpt lat="43.5999" lon="1.19099">
        <ele>246</ele>
        <time>2016-11-04T10:20:33Z</time>
      </trkpt>
      <trkpt lat="43.59982" lon="1.19096">
        <ele>246</ele>
        <time>2016-11-04T10:20:38Z</time>
      </trkpt>
      <trkpt lat="43.5997" lon="1.19095">
        <ele>246</ele>
        <time>2016-11-04T10:20:43Z</time>
      </trkpt>
      <trkpt lat="43.59961" lon="1.19093">
        <ele>246</ele>
        <time>2016-11-04T10:20:48Z</time>
      </trkpt>
      <trkpt lat="43.59949" lon="1.19091">
        <ele>240</ele>
        <time>2016-11-04T10:20:53Z</time>
      </trkpt>
      <trkpt lat="43.59941" lon="1.19087">
        <ele>240</ele>
        <time>2016-11-04T10:20:58Z</time>
      </trkpt>
      <trkpt lat="43.59933" lon="1.19085">
        <ele>240</ele>
        <time>2016-11-04T10:21:03Z</time>
      </trkpt>
      <trkpt lat="43.59923" lon="1.19082">
        <ele>240</ele>
        <time>2016-11-04T10:21:08Z</time>
      </trkpt>
      <trkpt lat="43.59914" lon="1.19081">
        <ele>240</ele>
        <time>2016-11-04T10:21:13Z</time>
      </trkpt>
      <trkpt lat="43.59908" lon="1.1908">
        <ele>240</ele>
        <time>2016-11-04T10:21:18Z</time>
      </trkpt>
      <trkpt lat="43.599" lon="1.19081">
        <ele>240</ele>
        <time>2016-11-04T10:21:23Z</time>
      </trkpt>
      <trkpt lat="43.59892" lon="1.1908">
        <ele>240</ele>
        <time>2016-11-04T10:21:28Z</time>
      </trkpt>
      <trkpt lat="43.59886" lon="1.1908">
        <ele>240</ele>
        <time>2016-11-04T10:21:33Z</time>
      </trkpt>
      <trkpt lat="43.59878" lon="1.19081">
        <ele>240</ele>
        <time>2016-11-04T10:21:38Z</time>
      </trkpt>
      <trkpt lat="43.5987" lon="1.19074">
        <ele>228</ele>
        <time>2016-11-04T10:21:43Z</time>
      </trkpt>
      <trkpt lat="43.59869" lon="1.19068">
        <ele>228</ele>
        <time>2016-11-04T10:21:48Z</time>
      </trkpt>
      <trkpt lat="43.59874" lon="1.1906">
        <ele>228</ele>
        <time>2016-11-04T10:21:53Z</time>
      </trkpt>
      <trkpt lat="43.59877" lon="1.19051">
        <ele>240</ele>
        <time>2016-11-04T10:21:58Z</time>
      </trkpt>
      <trkpt lat="43.5988" lon="1.19041">
        <ele>245</ele>
        <time>2016-11-04T10:22:03Z</time>
      </trkpt>
      <trkpt lat="43.59883" lon="1.19032">
        <ele>245</ele>
        <time>2016-11-04T10:22:08Z</time>
      </trkpt>
      <trkpt lat="43.59886" lon="1.19024">
        <ele>245</ele>
        <time>2016-11-04T10:22:13Z</time>
      </trkpt>
      <trkpt lat="43.59891" lon="1.19013">
        <ele>245</ele>
        <time>2016-11-04T10:22:18Z</time>
      </trkpt>
      <trkpt lat="43.59895" lon="1.19001">
        <ele>245</ele>
        <time>2016-11-04T10:22:23Z</time>
      </trkpt>
      <trkpt lat="43.59901" lon="1.18985">
        <ele>245</ele>
        <time>2016-11-04T10:22:28Z</time>
      </trkpt>
      <trkpt lat="43.59906" lon="1.18972">
        <ele>245</ele>
        <time>2016-11-04T10:22:33Z</time>
      </trkpt>
      <trkpt lat="43.59911" lon="1.18962">
        <ele>245</ele>
        <time>2016-11-04T10:22:38Z</time>
      </trkpt>
      <trkpt lat="43.59915" lon="1.18952">
        <ele>252</ele>
        <time>2016-11-04T10:22:43Z</time>
      </trkpt>
      <trkpt lat="43.59921" lon="1.18941">
        <ele>252</ele>
        <time>2016-11-04T10:22:48Z</time>
      </trkpt>
      <trkpt lat="43.59924" lon="1.18932">
        <ele>252</ele>
        <time>2016-11-04T10:22:53Z</time>
      </trkpt>
      <trkpt lat="43.59927" lon="1.18923">
        <ele>252</ele>
        <time>2016-11-04T10:22:58Z</time>
      </trkpt>
      <trkpt lat="43.59933" lon="1.18915">
        <ele>252</ele>
        <time>2016-11-04T10:23:03Z</time>
      </trkpt>
      <trkpt lat="43.59937" lon="1.18905">
        <ele>252</ele>
        <time>2016-11-04T10:23:08Z</time>
      </trkpt>
      <trkpt lat="43.59942" lon="1.18897">
        <ele>252</ele>
        <time>2016-11-04T10:23:13Z</time>
      </trkpt>
      <trkpt lat="43.59946" lon="1.18888">
        <ele>252</ele>
        <time>2016-11-04T10:23:18Z</time>
      </trkpt>
      <trkpt lat="43.5995" lon="1.18879">
        <ele>252</ele>
        <time>2016-11-04T10:23:23Z</time>
      </trkpt>
      <trkpt lat="43.59953" lon="1.18869">
        <ele>255</ele>
        <time>2016-11-04T10:23:28Z</time>
      </trkpt>
      <trkpt lat="43.59958" lon="1.18857">
        <ele>255</ele>
        <time>2016-11-04T10:23:33Z</time>
      </trkpt>
      <trkpt lat="43.59961" lon="1.18847">
        <ele>255</ele>
        <time>2016-11-04T10:23:38Z</time>
      </trkpt>
      <trkpt lat="43.59966" lon="1.18836">
        <ele>255</ele>
        <time>2016-11-04T10:23:43Z</time>
      </trkpt>
      <trkpt lat="43.59972" lon="1.18825">
        <ele>255</ele>
        <time>2016-11-04T10:23:48Z</time>
      </trkpt>
      <trkpt lat="43.59976" lon="1.18813">
        <ele>255</ele>
        <time>2016-11-04T10:23:53Z</time>
      </trkpt>
      <trkpt lat="43.59981" lon="1.18803">
        <ele>255</ele>
        <time>2016-11-04T10:23:58Z</time>
      </trkpt>
      <trkpt lat="43.59984" lon="1.18793">
        <ele>255</ele>
        <time>2016-11-04T10:24:03Z</time>
      </trkpt>
      <trkpt lat="43.59989" lon="1.18783">
        <ele>256</ele>
        <time>2016-11-04T10:24:08Z</time>
      </trkpt>
      <trkpt lat="43.59993" lon="1.18774">
        <ele>256</ele>
        <time>2016-11-04T10:24:13Z</time>
      </trkpt>
      <trkpt lat="43.59998" lon="1.18764">
        <ele>256</ele>
        <time>2016-11-04T10:24:18Z</time>
      </trkpt>
      <trkpt lat="43.60003" lon="1.18755">
        <ele>256</ele>
        <time>2016-11-04T10:24:23Z</time>
      </trkpt>
      <trkpt lat="43.60005" lon="1.18746">
        <ele>256</ele>
        <time>2016-11-04T10:24:28Z</time>
      </trkpt>
      <trkpt lat="43.60002" lon="1.18737">
        <ele>256</ele>
        <time>2016-11-04T10:24:33Z</time>
      </trkpt>
      <trkpt lat="43.59994" lon="1.18732">
        <ele>256</ele>
        <time>2016-11-04T10:24:38Z</time>
      </trkpt>
      <trkpt lat="43.59986" lon="1.18726">
        <ele>256</ele>
        <time>2016-11-04T10:24:43Z</time>
      </trkpt>
      <trkpt lat="43.59979" lon="1.1872">
        <ele>256</ele>
        <time>2016-11-04T10:24:48Z</time>
      </trkpt>
      <trkpt lat="43.5997" lon="1.18714">
        <ele>256</ele>
        <time>2016-11-04T10:24:53Z</time>
      </trkpt>
      <trkpt lat="43.59961" lon="1.18708">
        <ele>259</ele>
        <time>2016-11-04T10:24:58Z</time>
      </trkpt>
      <trkpt lat="43.59952" lon="1.18702">
        <ele>254</ele>
        <time>2016-11-04T10:25:03Z</time>
      </trkpt>
      <trkpt lat="43.59945" lon="1.18696">
        <ele>254</ele>
        <time>2016-11-04T10:25:08Z</time>
      </trkpt>
      <trkpt lat="43.59938" lon="1.1869">
        <ele>254</ele>
        <time>2016-11-04T10:25:13Z</time>
      </trkpt>
      <trkpt lat="43.5993" lon="1.18683">
        <ele>254</ele>
        <time>2016-11-04T10:25:18Z</time>
      </trkpt>
      <trkpt lat="43.59922" lon="1.18676">
        <ele>254</ele>
        <time>2016-11-04T10:25:23Z</time>
      </trkpt>
      <trkpt lat="43.59914" lon="1.18671">
        <ele>254</ele>
        <time>2016-11-04T10:25:28Z</time>
      </trkpt>
      <trkpt lat="43.59906" lon="1.18665">
        <ele>254</ele>
        <time>2016-11-04T10:25:33Z</time>
      </trkpt>
      <trkpt lat="43.599" lon="1.1866">
        <ele>254</ele>
        <time>2016-11-04T10:25:38Z</time>
      </trkpt>
      <trkpt lat="43.59894" lon="1.18655">
        <ele>254</ele>
        <time>2016-11-04T10:25:43Z</time>
      </trkpt>
      <trkpt lat="43.59888" lon="1.1865">
        <ele>254</ele>
        <time>2016-11-04T10:25:48Z</time>
      </trkpt>
      <trkpt lat="43.59881" lon="1.18645">
        <ele>254</ele>
        <time>2016-11-04T10:25:53Z</time>
      </trkpt>
      <trkpt lat="43.59874" lon="1.1864">
        <ele>253</ele>
        <time>2016-11-04T10:25:58Z</time>
      </trkpt>
      <trkpt lat="43.59868" lon="1.18634">
        <ele>253</ele>
        <time>2016-11-04T10:26:03Z</time>
      </trkpt>
      <trkpt lat="43.5986" lon="1.18626">
        <ele>253</ele>
        <time>2016-11-04T10:26:08Z</time>
      </trkpt>
      <trkpt lat="43.59853" lon="1.1862">
        <ele>254</ele>
        <time>2016-11-04T10:26:13Z</time>
      </trkpt>
      <trkpt lat="43.59846" lon="1.18616">
        <ele>254</ele>
        <time>2016-11-04T10:26:18Z</time>
      </trkpt>
      <trkpt lat="43.59839" lon="1.18611">
        <ele>254</ele>
        <time>2016-11-04T10:26:23Z</time>
      </trkpt>
      <trkpt lat="43.59831" lon="1.18604">
        <ele>254</ele>
        <time>2016-11-04T10:26:28Z</time>
      </trkpt>
      <trkpt lat="43.59823" lon="1.18597">
        <ele>254</ele>
        <time>2016-11-04T10:26:33Z</time>
      </trkpt>
      <trkpt lat="43.59816" lon="1.1859">
        <ele>254</ele>
        <time>2016-11-04T10:26:38Z</time>
      </trkpt>
      <trkpt lat="43.59808" lon="1.18584">
        <ele>254</ele>
        <time>2016-11-04T10:26:43Z</time>
      </trkpt>
      <trkpt lat="43.59799" lon="1.18578">
        <ele>254</ele>
        <time>2016-11-04T10:26:48Z</time>
      </trkpt>
      <trkpt lat="43.59793" lon="1.18573">
        <ele>254</ele>
        <time>2016-11-04T10:26:53Z</time>
      </trkpt>
      <trkpt lat="43.59784" lon="1.18565">
        <ele>252</ele>
        <time>2016-11-04T10:26:58Z</time>
      </trkpt>
      <trkpt lat="43.59775" lon="1.18559">
        <ele>252</ele>
        <time>2016-11-04T10:27:03Z</time>
      </trkpt>
      <trkpt lat="43.59767" lon="1.18554">
        <ele>252</ele>
        <time>2016-11-04T10:27:08Z</time>
      </trkpt>
      <trkpt lat="43.5976" lon="1.18546">
        <ele>252</ele>
        <time>2016-11-04T10:27:13Z</time>
      </trkpt>
      <trkpt lat="43.59753" lon="1.18539">
        <ele>255</ele>
        <time>2016-11-04T10:27:18Z</time>
      </trkpt>
      <trkpt lat="43.59746" lon="1.18532">
        <ele>255</ele>
        <time>2016-11-04T10:27:23Z</time>
      </trkpt>
      <trkpt lat="43.59739" lon="1.18527">
        <ele>255</ele>
        <time>2016-11-04T10:27:28Z</time>
      </trkpt>
      <trkpt lat="43.59732" lon="1.1852">
        <ele>255</ele>
        <time>2016-11-04T10:27:33Z</time>
      </trkpt>
      <trkpt lat="43.59725" lon="1.18514">
        <ele>255</ele>
        <time>2016-11-04T10:27:38Z</time>
      </trkpt>
      <trkpt lat="43.59717" lon="1.18507">
        <ele>255</ele>
        <time>2016-11-04T10:27:43Z</time>
      </trkpt>
      <trkpt lat="43.59711" lon="1.18503">
        <ele>255</ele>
        <time>2016-11-04T10:27:48Z</time>
      </trkpt>
      <trkpt lat="43.59708" lon="1.18492">
        <ele>251</ele>
        <time>2016-11-04T10:27:53Z</time>
      </trkpt>
      <trkpt lat="43.59708" lon="1.18481">
        <ele>251</ele>
        <time>2016-11-04T10:27:58Z</time>
      </trkpt>
      <trkpt lat="43.59709" lon="1.1847">
        <ele>255</ele>
        <time>2016-11-04T10:28:03Z</time>
      </trkpt>
      <trkpt lat="43.59709" lon="1.18456">
        <ele>257</ele>
        <time>2016-11-04T10:28:08Z</time>
      </trkpt>
      <trkpt lat="43.59708" lon="1.18447">
        <ele>247</ele>
        <time>2016-11-04T10:28:13Z</time>
      </trkpt>
      <trkpt lat="43.59708" lon="1.18438">
        <ele>247</ele>
        <time>2016-11-04T10:28:18Z</time>
      </trkpt>
      <trkpt lat="43.59712" lon="1.18426">
        <ele>257</ele>
        <time>2016-11-04T10:28:23Z</time>
      </trkpt>
      <trkpt lat="43.59716" lon="1.18415">
        <ele>257</ele>
        <time>2016-11-04T10:28:28Z</time>
      </trkpt>
      <trkpt lat="43.59721" lon="1.18407">
        <ele>257</ele>
        <time>2016-11-04T10:28:33Z</time>
      </trkpt>
      <trkpt lat="43.59726" lon="1.18398">
        <ele>257</ele>
        <time>2016-11-04T10:28:38Z</time>
      </trkpt>
      <trkpt lat="43.59729" lon="1.18391">
        <ele>257</ele>
        <time>2016-11-04T10:28:43Z</time>
      </trkpt>
      <trkpt lat="43.59734" lon="1.18378">
        <ele>257</ele>
        <time>2016-11-04T10:28:48Z</time>
      </trkpt>
      <trkpt lat="43.59735" lon="1.18367">
        <ele>259</ele>
        <time>2016-11-04T10:28:53Z</time>
      </trkpt>
      <trkpt lat="43.59737" lon="1.18357">
        <ele>259</ele>
        <time>2016-11-04T10:28:58Z</time>
      </trkpt>
      <trkpt lat="43.5974" lon="1.18345">
        <ele>259</ele>
        <time>2016-11-04T10:29:03Z</time>
      </trkpt>
      <trkpt lat="43.5974" lon="1.18334">
        <ele>259</ele>
        <time>2016-11-04T10:29:08Z</time>
      </trkpt>
      <trkpt lat="43.5974" lon="1.18325">
        <ele>259</ele>
        <time>2016-11-04T10:29:13Z</time>
      </trkpt>
      <trkpt lat="43.5974" lon="1.18315">
        <ele>259</ele>
        <time>2016-11-04T10:29:18Z</time>
      </trkpt>
      <trkpt lat="43.59741" lon="1.18308">
        <ele>259</ele>
        <time>2016-11-04T10:29:23Z</time>
      </trkpt>
      <trkpt lat="43.59743" lon="1.18294">
        <ele>259</ele>
        <time>2016-11-04T10:29:28Z</time>
      </trkpt>
      <trkpt lat="43.59744" lon="1.18282">
        <ele>262</ele>
        <time>2016-11-04T10:29:33Z</time>
      </trkpt>
      <trkpt lat="43.59745" lon="1.18273">
        <ele>262</ele>
        <time>2016-11-04T10:29:38Z</time>
      </trkpt>
      <trkpt lat="43.59748" lon="1.18262">
        <ele>262</ele>
        <time>2016-11-04T10:29:43Z</time>
      </trkpt>
      <trkpt lat="43.59748" lon="1.18254">
        <ele>262</ele>
        <time>2016-11-04T10:29:48Z</time>
      </trkpt>
      <trkpt lat="43.59751" lon="1.18241">
        <ele>262</ele>
        <time>2016-11-04T10:29:53Z</time>
      </trkpt>
      <trkpt lat="43.59753" lon="1.18229">
        <ele>262</ele>
        <time>2016-11-04T10:29:58Z</time>
      </trkpt>
      <trkpt lat="43.59756" lon="1.18215">
        <ele>262</ele>
        <time>2016-11-04T10:30:03Z</time>
      </trkpt>
      <trkpt lat="43.59759" lon="1.18205">
        <ele>263</ele>
        <time>2016-11-04T10:30:08Z</time>
      </trkpt>
      <trkpt lat="43.59762" lon="1.18196">
        <ele>263</ele>
        <time>2016-11-04T10:30:13Z</time>
      </trkpt>
      <trkpt lat="43.59763" lon="1.18187">
        <ele>263</ele>
        <time>2016-11-04T10:30:18Z</time>
      </trkpt>
      <trkpt lat="43.5976" lon="1.18175">
        <ele>263</ele>
        <time>2016-11-04T10:30:23Z</time>
      </trkpt>
      <trkpt lat="43.59756" lon="1.18164">
        <ele>263</ele>
        <time>2016-11-04T10:30:28Z</time>
      </trkpt>
      <trkpt lat="43.59753" lon="1.18155">
        <ele>263</ele>
        <time>2016-11-04T10:30:33Z</time>
      </trkpt>
      <trkpt lat="43.59751" lon="1.18146">
        <ele>263</ele>
        <time>2016-11-04T10:30:38Z</time>
      </trkpt>
      <trkpt lat="43.59749" lon="1.18136">
        <ele>263</ele>
        <time>2016-11-04T10:30:43Z</time>
      </trkpt>
      <trkpt lat="43.59747" lon="1.18126">
        <ele>263</ele>
        <time>2016-11-04T10:30:48Z</time>
      </trkpt>
      <trkpt lat="43.59745" lon="1.18114">
        <ele>263</ele>
        <time>2016-11-04T10:30:53Z</time>
      </trkpt>
      <trkpt lat="43.59744" lon="1.18104">
        <ele>263</ele>
        <time>2016-11-04T10:30:58Z</time>
      </trkpt>
      <trkpt lat="43.59743" lon="1.18093">
        <ele>263</ele>
        <time>2016-11-04T10:31:03Z</time>
      </trkpt>
      <trkpt lat="43.5974" lon="1.18083">
        <ele>263</ele>
        <time>2016-11-04T10:31:08Z</time>
      </trkpt>
      <trkpt lat="43.59739" lon="1.18074">
        <ele>263</ele>
        <time>2016-11-04T10:31:13Z</time>
      </trkpt>
      <trkpt lat="43.59737" lon="1.18059">
        <ele>263</ele>
        <time>2016-11-04T10:31:18Z</time>
      </trkpt>
      <trkpt lat="43.59735" lon="1.18045">
        <ele>263</ele>
        <time>2016-11-04T10:31:23Z</time>
      </trkpt>
      <trkpt lat="43.59735" lon="1.18033">
        <ele>263</ele>
        <time>2016-11-04T10:31:28Z</time>
      </trkpt>
      <trkpt lat="43.59736" lon="1.18024">
        <ele>263</ele>
        <time>2016-11-04T10:31:33Z</time>
      </trkpt>
      <trkpt lat="43.59735" lon="1.18014">
        <ele>263</ele>
        <time>2016-11-04T10:31:38Z</time>
      </trkpt>
      <trkpt lat="43.59736" lon="1.18005">
        <ele>263</ele>
        <time>2016-11-04T10:31:43Z</time>
      </trkpt>
      <trkpt lat="43.59739" lon="1.17991">
        <ele>263</ele>
        <time>2016-11-04T10:31:48Z</time>
      </trkpt>
      <trkpt lat="43.59738" lon="1.17978">
        <ele>263</ele>
        <time>2016-11-04T10:31:53Z</time>
      </trkpt>
      <trkpt lat="43.59736" lon="1.17967">
        <ele>263</ele>
        <time>2016-11-04T10:31:58Z</time>
      </trkpt>
      <trkpt lat="43.59735" lon="1.17953">
        <ele>267</ele>
        <time>2016-11-04T10:32:03Z</time>
      </trkpt>
      <trkpt lat="43.59736" lon="1.17939">
        <ele>267</ele>
        <time>2016-11-04T10:32:08Z</time>
      </trkpt>
      <trkpt lat="43.59736" lon="1.17928">
        <ele>267</ele>
        <time>2016-11-04T10:32:13Z</time>
      </trkpt>
      <trkpt lat="43.59735" lon="1.17919">
        <ele>267</ele>
        <time>2016-11-04T10:32:18Z</time>
      </trkpt>
      <trkpt lat="43.59733" lon="1.1791">
        <ele>267</ele>
        <time>2016-11-04T10:32:23Z</time>
      </trkpt>
      <trkpt lat="43.59731" lon="1.17904">
        <ele>267</ele>
        <time>2016-11-04T10:32:28Z</time>
      </trkpt>
      <trkpt lat="43.59731" lon="1.17893">
        <ele>267</ele>
        <time>2016-11-04T10:32:33Z</time>
      </trkpt>
      <trkpt lat="43.59729" lon="1.17881">
        <ele>267</ele>
        <time>2016-11-04T10:32:38Z</time>
      </trkpt>
      <trkpt lat="43.5973" lon="1.17864">
        <ele>270</ele>
        <time>2016-11-04T10:32:43Z</time>
      </trkpt>
      <trkpt lat="43.59729" lon="1.17854">
        <ele>270</ele>
        <time>2016-11-04T10:32:48Z</time>
      </trkpt>
      <trkpt lat="43.59729" lon="1.17842">
        <ele>270</ele>
        <time>2016-11-04T10:32:53Z</time>
      </trkpt>
      <trkpt lat="43.59732" lon="1.17829">
        <ele>270</ele>
        <time>2016-11-04T10:32:58Z</time>
      </trkpt>
      <trkpt lat="43.59734" lon="1.17814">
        <ele>270</ele>
        <time>2016-11-04T10:33:03Z</time>
      </trkpt>
      <trkpt lat="43.59736" lon="1.178">
        <ele>270</ele>
        <time>2016-11-04T10:33:08Z</time>
      </trkpt>
      <trkpt lat="43.59735" lon="1.17791">
        <ele>271</ele>
        <time>2016-11-04T10:33:13Z</time>
      </trkpt>
      <trkpt lat="43.59732" lon="1.17783">
        <ele>271</ele>
        <time>2016-11-04T10:33:18Z</time>
      </trkpt>
      <trkpt lat="43.59731" lon="1.17777">
        <ele>271</ele>
        <time>2016-11-04T10:33:23Z</time>
      </trkpt>
      <trkpt lat="43.59731" lon="1.17767">
        <ele>271</ele>
        <time>2016-11-04T10:33:28Z</time>
      </trkpt>
      <trkpt lat="43.59729" lon="1.17757">
        <ele>271</ele>
        <time>2016-11-04T10:33:33Z</time>
      </trkpt>
      <trkpt lat="43.59729" lon="1.17745">
        <ele>271</ele>
        <time>2016-11-04T10:33:38Z</time>
      </trkpt>
      <trkpt lat="43.5973" lon="1.17729">
        <ele>271</ele>
        <time>2016-11-04T10:33:43Z</time>
      </trkpt>
      <trkpt lat="43.5973" lon="1.17718">
        <ele>271</ele>
        <time>2016-11-04T10:33:48Z</time>
      </trkpt>
      <trkpt lat="43.5973" lon="1.1771">
        <ele>271</ele>
        <time>2016-11-04T10:33:53Z</time>
      </trkpt>
      <trkpt lat="43.59734" lon="1.17692">
        <ele>273</ele>
        <time>2016-11-04T10:33:58Z</time>
      </trkpt>
      <trkpt lat="43.59737" lon="1.1768">
        <ele>273</ele>
        <time>2016-11-04T10:34:03Z</time>
      </trkpt>
      <trkpt lat="43.59742" lon="1.17667">
        <ele>273</ele>
        <time>2016-11-04T10:34:08Z</time>
      </trkpt>
      <trkpt lat="43.59748" lon="1.17654">
        <ele>273</ele>
        <time>2016-11-04T10:34:13Z</time>
      </trkpt>
      <trkpt lat="43.59754" lon="1.17646">
        <ele>273</ele>
        <time>2016-11-04T10:34:18Z</time>
      </trkpt>
      <trkpt lat="43.59759" lon="1.17636">
        <ele>273</ele>
        <time>2016-11-04T10:34:23Z</time>
      </trkpt>
      <trkpt lat="43.59762" lon="1.17627">
        <ele>273</ele>
        <time>2016-11-04T10:34:28Z</time>
      </trkpt>
      <trkpt lat="43.59763" lon="1.17617">
        <ele>272</ele>
        <time>2016-11-04T10:34:33Z</time>
      </trkpt>
      <trkpt lat="43.59766" lon="1.17606">
        <ele>272</ele>
        <time>2016-11-04T10:34:38Z</time>
      </trkpt>
      <trkpt lat="43.59767" lon="1.17596">
        <ele>272</ele>
        <time>2016-11-04T10:34:43Z</time>
      </trkpt>
      <trkpt lat="43.59769" lon="1.17585">
        <ele>272</ele>
        <time>2016-11-04T10:34:48Z</time>
      </trkpt>
      <trkpt lat="43.59771" lon="1.17573">
        <ele>272</ele>
        <time>2016-11-04T10:34:53Z</time>
      </trkpt>
      <trkpt lat="43.59774" lon="1.17563">
        <ele>272</ele>
        <time>2016-11-04T10:34:58Z</time>
      </trkpt>
      <trkpt lat="43.59776" lon="1.17553">
        <ele>272</ele>
        <time>2016-11-04T10:35:03Z</time>
      </trkpt>
      <trkpt lat="43.5978" lon="1.17543">
        <ele>272</ele>
        <time>2016-11-04T10:35:08Z</time>
      </trkpt>
      <trkpt lat="43.59784" lon="1.17533">
        <ele>274</ele>
        <time>2016-11-04T10:35:13Z</time>
      </trkpt>
      <trkpt lat="43.59787" lon="1.17522">
        <ele>274</ele>
        <time>2016-11-04T10:35:18Z</time>
      </trkpt>
      <trkpt lat="43.59788" lon="1.17511">
        <ele>274</ele>
        <time>2016-11-04T10:35:23Z</time>
      </trkpt>
      <trkpt lat="43.59788" lon="1.175">
        <ele>274</ele>
        <time>2016-11-04T10:35:28Z</time>
      </trkpt>
      <trkpt lat="43.59789" lon="1.17488">
        <ele>274</ele>
        <time>2016-11-04T10:35:33Z</time>
      </trkpt>
      <trkpt lat="43.59791" lon="1.17475">
        <ele>274</ele>
        <time>2016-11-04T10:35:38Z</time>
      </trkpt>
      <trkpt lat="43.5979" lon="1.17463">
        <ele>274</ele>
        <time>2016-11-04T10:35:43Z</time>
      </trkpt>
      <trkpt lat="43.59791" lon="1.17452">
        <ele>279</ele>
        <time>2016-11-04T10:35:48Z</time>
      </trkpt>
      <trkpt lat="43.59794" lon="1.17441">
        <ele>282</ele>
        <time>2016-11-04T10:35:53Z</time>
      </trkpt>
      <trkpt lat="43.598" lon="1.1743">
        <ele>282</ele>
        <time>2016-11-04T10:35:58Z</time>
      </trkpt>
      <trkpt lat="43.59804" lon="1.17422">
        <ele>282</ele>
        <time>2016-11-04T10:36:03Z</time>
      </trkpt>
      <trkpt lat="43.59806" lon="1.17413">
        <ele>282</ele>
        <time>2016-11-04T10:36:08Z</time>
      </trkpt>
      <trkpt lat="43.59811" lon="1.17405">
        <ele>282</ele>
        <time>2016-11-04T10:36:13Z</time>
      </trkpt>
      <trkpt lat="43.59818" lon="1.174">
        <ele>282</ele>
        <time>2016-11-04T10:36:18Z</time>
      </trkpt>
      <trkpt lat="43.59824" lon="1.17396">
        <ele>282</ele>
        <time>2016-11-04T10:36:23Z</time>
      </trkpt>
      <trkpt lat="43.59831" lon="1.17391">
        <ele>282</ele>
        <time>2016-11-04T10:36:28Z</time>
      </trkpt>
      <trkpt lat="43.59839" lon="1.17389">
        <ele>282</ele>
        <time>2016-11-04T10:36:33Z</time>
      </trkpt>
      <trkpt lat="43.59845" lon="1.17386">
        <ele>282</ele>
        <time>2016-11-04T10:36:38Z</time>
      </trkpt>
      <trkpt lat="43.59851" lon="1.17382">
        <ele>282</ele>
        <time>2016-11-04T10:36:43Z</time>
      </trkpt>
      <trkpt lat="43.59857" lon="1.17379">
        <ele>282</ele>
        <time>2016-11-04T10:36:48Z</time>
      </trkpt>
      <trkpt lat="43.59858" lon="1.17378">
        <ele>282</ele>
        <time>2016-11-04T10:36:53Z</time>
      </trkpt>
      <trkpt lat="43.5986" lon="1.17377">
        <ele>282</ele>
        <time>2016-11-04T10:36:58Z</time>
      </trkpt>
      <trkpt lat="43.5986" lon="1.17376">
        <ele>282</ele>
        <time>2016-11-04T10:37:03Z</time>
      </trkpt>
      <trkpt lat="43.5986" lon="1.17375">
        <ele>282</ele>
        <time>2016-11-04T10:37:08Z</time>
      </trkpt>
      <trkpt lat="43.59861" lon="1.17375">
        <ele>288</ele>
        <time>2016-11-04T10:37:13Z</time>
      </trkpt>
      <trkpt lat="43.59861" lon="1.17375">
        <ele>282</ele>
        <time>2016-11-04T10:37:18Z</time>
      </trkpt>
      <trkpt lat="43.59861" lon="1.17375">
        <ele>282</ele>
        <time>2016-11-04T10:37:23Z</time>
      </trkpt>
      <trkpt lat="43.59861" lon="1.17375">
        <ele>282</ele>
        <time>2016-11-04T10:37:28Z</time>
      </trkpt>
      <trkpt lat="43.59862" lon="1.17375">
        <ele>282</ele>
        <time>2016-11-04T10:37:33Z</time>
      </trkpt>
      <trkpt lat="43.59863" lon="1.17375">
        <ele>282</ele>
        <time>2016-11-04T10:37:38Z</time>
      </trkpt>
      <trkpt lat="43.59864" lon="1.17373">
        <ele>288</ele>
        <time>2016-11-04T10:37:43Z</time>
      </trkpt>
      <trkpt lat="43.59863" lon="1.17372">
        <ele>288</ele>
        <time>2016-11-04T10:37:48Z</time>
      </trkpt>
      <trkpt lat="43.59865" lon="1.17368">
        <ele>288</ele>
        <time>2016-11-04T10:37:53Z</time>
      </trkpt>
      <trkpt lat="43.59865" lon="1.17368">
        <ele>288</ele>
        <time>2016-11-04T10:37:58Z</time>
      </trkpt>
      <trkpt lat="43.59865" lon="1.17367">
        <ele>288</ele>
        <time>2016-11-04T10:38:03Z</time>
      </trkpt>
      <trkpt lat="43.59866" lon="1.17367">
        <ele>288</ele>
        <time>2016-11-04T10:38:08Z</time>
      </trkpt>
      <trkpt lat="43.59866" lon="1.17366">
        <ele>288</ele>
        <time>2016-11-04T10:38:13Z</time>
      </trkpt>
      <trkpt lat="43.59866" lon="1.17366">
        <ele>288</ele>
        <time>2016-11-04T10:38:18Z</time>
      </trkpt>
      <trkpt lat="43.59865" lon="1.17365">
        <ele>288</ele>
        <time>2016-11-04T10:38:23Z</time>
      </trkpt>
      <trkpt lat="43.59866" lon="1.17365">
        <ele>288</ele>
        <time>2016-11-04T10:38:28Z</time>
      </trkpt>
      <trkpt lat="43.59866" lon="1.17366">
        <ele>288</ele>
        <time>2016-11-04T10:38:33Z</time>
      </trkpt>
      <trkpt lat="43.59866" lon="1.17366">
        <ele>288</ele>
        <time>2016-11-04T10:38:38Z</time>
      </trkpt>
      <trkpt lat="43.59867" lon="1.17366">
        <ele>288</ele>
        <time>2016-11-04T10:38:43Z</time>
      </trkpt>
      <trkpt lat="43.59867" lon="1.17366">
        <ele>288</ele>
        <time>2016-11-04T10:38:48Z</time>
      </trkpt>
      <trkpt lat="43.59867" lon="1.17367">
        <ele>288</ele>
        <time>2016-11-04T10:38:53Z</time>
      </trkpt>
      <trkpt lat="43.59867" lon="1.17366">
        <ele>288</ele>
        <time>2016-11-04T10:38:58Z</time>
      </trkpt>
      <trkpt lat="43.59867" lon="1.17366">
        <ele>288</ele>
        <time>2016-11-04T10:39:03Z</time>
      </trkpt>
      <trkpt lat="43.59866" lon="1.17365">
        <ele>288</ele>
        <time>2016-11-04T10:39:08Z</time>
      </trkpt>
      <trkpt lat="43.59866" lon="1.17366">
        <ele>288</ele>
        <time>2016-11-04T10:39:13Z</time>
      </trkpt>
      <trkpt lat="43.59866" lon="1.17366">
        <ele>288</ele>
        <time>2016-11-04T10:39:18Z</time>
      </trkpt>
      <trkpt lat="43.59866" lon="1.17365">
        <ele>288</ele>
        <time>2016-11-04T10:39:23Z</time>
      </trkpt>
      <trkpt lat="43.59865" lon="1.17365">
        <ele>288</ele>
        <time>2016-11-04T10:39:28Z</time>
      </trkpt>
      <trkpt lat="43.59865" lon="1.17365">
        <ele>288</ele>
        <time>2016-11-04T10:39:33Z</time>
      </trkpt>
      <trkpt lat="43.59865" lon="1.17365">
        <ele>288</ele>
        <time>2016-11-04T10:39:38Z</time>
      </trkpt>
      <trkpt lat="43.59865" lon="1.17365">
        <ele>288</ele>
        <time>2016-11-04T10:39:43Z</time>
      </trkpt>
      <trkpt lat="43.59865" lon="1.17365">
        <ele>288</ele>
        <time>2016-11-04T10:39:48Z</time>
      </trkpt>
      <trkpt lat="43.59865" lon="1.17365">
        <ele>288</ele>
        <time>2016-11-04T10:39:53Z</time>
      </trkpt>
      <trkpt lat="43.59865" lon="1.17365">
        <ele>288</ele>
        <time>2016-11-04T10:39:58Z</time>
      </trkpt>
      <trkpt lat="43.59865" lon="1.17365">
        <ele>288</ele>
        <time>2016-11-04T10:40:03Z</time>
      </trkpt>
      <trkpt lat="43.59864" lon="1.17365">
        <ele>288</ele>
        <time>2016-11-04T10:40:08Z</time>
      </trkpt>
      <trkpt lat="43.59864" lon="1.17365">
        <ele>288</ele>
        <time>2016-11-04T10:40:13Z</time>
      </trkpt>
      <trkpt lat="43.59864" lon="1.17365">
        <ele>288</ele>
        <time>2016-11-04T10:40:18Z</time>
      </trkpt>
      <trkpt lat="43.59864" lon="1.17365">
        <ele>288</ele>
        <time>2016-11-04T10:40:23Z</time>
      </trkpt>
      <trkpt lat="43.59864" lon="1.17365">
        <ele>288</ele>
        <time>2016-11-04T10:40:28Z</time>
      </trkpt>
      <trkpt lat="43.59863" lon="1.17362">
        <ele>288</ele>
        <time>2016-11-04T10:40:33Z</time>
      </trkpt>
      <trkpt lat="43.59868" lon="1.17357">
        <ele>288</ele>
        <time>2016-11-04T10:40:38Z</time>
      </trkpt>
      <trkpt lat="43.59871" lon="1.17352">
        <ele>288</ele>
        <time>2016-11-04T10:40:43Z</time>
      </trkpt>
      <trkpt lat="43.59876" lon="1.17341">
        <ele>282</ele>
        <time>2016-11-04T10:40:48Z</time>
      </trkpt>
      <trkpt lat="43.59881" lon="1.17329">
        <ele>282</ele>
        <time>2016-11-04T10:40:53Z</time>
      </trkpt>
      <trkpt lat="43.59884" lon="1.1732">
        <ele>282</ele>
        <time>2016-11-04T10:40:58Z</time>
      </trkpt>
      <trkpt lat="43.59889" lon="1.17309">
        <ele>282</ele>
        <time>2016-11-04T10:41:03Z</time>
      </trkpt>
      <trkpt lat="43.59892" lon="1.17299">
        <ele>282</ele>
        <time>2016-11-04T10:41:08Z</time>
      </trkpt>
      <trkpt lat="43.59896" lon="1.17291">
        <ele>282</ele>
        <time>2016-11-04T10:41:13Z</time>
      </trkpt>
      <trkpt lat="43.599" lon="1.17281">
        <ele>282</ele>
        <time>2016-11-04T10:41:18Z</time>
      </trkpt>
      <trkpt lat="43.59908" lon="1.17267">
        <ele>282</ele>
        <time>2016-11-04T10:41:23Z</time>
      </trkpt>
      <trkpt lat="43.59914" lon="1.1726">
        <ele>282</ele>
        <time>2016-11-04T10:41:28Z</time>
      </trkpt>
      <trkpt lat="43.5992" lon="1.17254">
        <ele>282</ele>
        <time>2016-11-04T10:41:33Z</time>
      </trkpt>
      <trkpt lat="43.59927" lon="1.17246">
        <ele>282</ele>
        <time>2016-11-04T10:41:38Z</time>
      </trkpt>
      <trkpt lat="43.59936" lon="1.17238">
        <ele>282</ele>
        <time>2016-11-04T10:41:43Z</time>
      </trkpt>
      <trkpt lat="43.59942" lon="1.17229">
        <ele>282</ele>
        <time>2016-11-04T10:41:48Z</time>
      </trkpt>
      <trkpt lat="43.59945" lon="1.17219">
        <ele>282</ele>
        <time>2016-11-04T10:41:53Z</time>
      </trkpt>
      <trkpt lat="43.5995" lon="1.17208">
        <ele>280</ele>
        <time>2016-11-04T10:41:58Z</time>
      </trkpt>
      <trkpt lat="43.59952" lon="1.17199">
        <ele>280</ele>
        <time>2016-11-04T10:42:03Z</time>
      </trkpt>
      <trkpt lat="43.59957" lon="1.17188">
        <ele>280</ele>
        <time>2016-11-04T10:42:08Z</time>
      </trkpt>
      <trkpt lat="43.5996" lon="1.17176">
        <ele>282</ele>
        <time>2016-11-04T10:42:13Z</time>
      </trkpt>
      <trkpt lat="43.59962" lon="1.17166">
        <ele>282</ele>
        <time>2016-11-04T10:42:18Z</time>
      </trkpt>
      <trkpt lat="43.59962" lon="1.17165">
        <ele>282</ele>
        <time>2016-11-04T10:42:23Z</time>
      </trkpt>
      <trkpt lat="43.59962" lon="1.17165">
        <ele>282</ele>
        <time>2016-11-04T10:42:28Z</time>
      </trkpt>
      <trkpt lat="43.59962" lon="1.17165">
        <ele>282</ele>
        <time>2016-11-04T10:42:33Z</time>
      </trkpt>
      <trkpt lat="43.59964" lon="1.17159">
        <ele>282</ele>
        <time>2016-11-04T10:42:38Z</time>
      </trkpt>
      <trkpt lat="43.59967" lon="1.17153">
        <ele>282</ele>
        <time>2016-11-04T10:42:43Z</time>
      </trkpt>
      <trkpt lat="43.5997" lon="1.17143">
        <ele>282</ele>
        <time>2016-11-04T10:42:48Z</time>
      </trkpt>
      <trkpt lat="43.59974" lon="1.17132">
        <ele>282</ele>
        <time>2016-11-04T10:42:53Z</time>
      </trkpt>
      <trkpt lat="43.59979" lon="1.1712">
        <ele>279</ele>
        <time>2016-11-04T10:42:58Z</time>
      </trkpt>
      <trkpt lat="43.59985" lon="1.17113">
        <ele>279</ele>
        <time>2016-11-04T10:43:03Z</time>
      </trkpt>
      <trkpt lat="43.59989" lon="1.17106">
        <ele>279</ele>
        <time>2016-11-04T10:43:08Z</time>
      </trkpt>
      <trkpt lat="43.59996" lon="1.17101">
        <ele>279</ele>
        <time>2016-11-04T10:43:13Z</time>
      </trkpt>
      <trkpt lat="43.60003" lon="1.17093">
        <ele>279</ele>
        <time>2016-11-04T10:43:18Z</time>
      </trkpt>
      <trkpt lat="43.60009" lon="1.17086">
        <ele>279</ele>
        <time>2016-11-04T10:43:23Z</time>
      </trkpt>
      <trkpt lat="43.60014" lon="1.17079">
        <ele>279</ele>
        <time>2016-11-04T10:43:28Z</time>
      </trkpt>
      <trkpt lat="43.6002" lon="1.17073">
        <ele>279</ele>
        <time>2016-11-04T10:43:33Z</time>
      </trkpt>
      <trkpt lat="43.60025" lon="1.17064">
        <ele>279</ele>
        <time>2016-11-04T10:43:38Z</time>
      </trkpt>
      <trkpt lat="43.60031" lon="1.17056">
        <ele>279</ele>
        <time>2016-11-04T10:43:43Z</time>
      </trkpt>
      <trkpt lat="43.60038" lon="1.1705">
        <ele>279</ele>
        <time>2016-11-04T10:43:48Z</time>
      </trkpt>
      <trkpt lat="43.60045" lon="1.17044">
        <ele>285</ele>
        <time>2016-11-04T10:43:53Z</time>
      </trkpt>
      <trkpt lat="43.60053" lon="1.17038">
        <ele>284</ele>
        <time>2016-11-04T10:43:58Z</time>
      </trkpt>
      <trkpt lat="43.60059" lon="1.1703">
        <ele>284</ele>
        <time>2016-11-04T10:44:03Z</time>
      </trkpt>
      <trkpt lat="43.60064" lon="1.1702">
        <ele>284</ele>
        <time>2016-11-04T10:44:08Z</time>
      </trkpt>
      <trkpt lat="43.60069" lon="1.17008">
        <ele>284</ele>
        <time>2016-11-04T10:44:13Z</time>
      </trkpt>
      <trkpt lat="43.60074" lon="1.16998">
        <ele>284</ele>
        <time>2016-11-04T10:44:18Z</time>
      </trkpt>
      <trkpt lat="43.60079" lon="1.16988">
        <ele>284</ele>
        <time>2016-11-04T10:44:23Z</time>
      </trkpt>
      <trkpt lat="43.60083" lon="1.16978">
        <ele>284</ele>
        <time>2016-11-04T10:44:28Z</time>
      </trkpt>
      <trkpt lat="43.60085" lon="1.16967">
        <ele>284</ele>
        <time>2016-11-04T10:44:33Z</time>
      </trkpt>
      <trkpt lat="43.60088" lon="1.16957">
        <ele>286</ele>
        <time>2016-11-04T10:44:38Z</time>
      </trkpt>
      <trkpt lat="43.60091" lon="1.16946">
        <ele>286</ele>
        <time>2016-11-04T10:44:43Z</time>
      </trkpt>
      <trkpt lat="43.60093" lon="1.16937">
        <ele>286</ele>
        <time>2016-11-04T10:44:48Z</time>
      </trkpt>
      <trkpt lat="43.60096" lon="1.16927">
        <ele>286</ele>
        <time>2016-11-04T10:44:53Z</time>
      </trkpt>
      <trkpt lat="43.60099" lon="1.16916">
        <ele>286</ele>
        <time>2016-11-04T10:44:58Z</time>
      </trkpt>
      <trkpt lat="43.60103" lon="1.16906">
        <ele>286</ele>
        <time>2016-11-04T10:45:03Z</time>
      </trkpt>
      <trkpt lat="43.60107" lon="1.16896">
        <ele>286</ele>
        <time>2016-11-04T10:45:08Z</time>
      </trkpt>
      <trkpt lat="43.6011" lon="1.16885">
        <ele>286</ele>
        <time>2016-11-04T10:45:13Z</time>
      </trkpt>
      <trkpt lat="43.60113" lon="1.16874">
        <ele>294</ele>
        <time>2016-11-04T10:45:18Z</time>
      </trkpt>
      <trkpt lat="43.60116" lon="1.16863">
        <ele>294</ele>
        <time>2016-11-04T10:45:23Z</time>
      </trkpt>
      <trkpt lat="43.60119" lon="1.16851">
        <ele>294</ele>
        <time>2016-11-04T10:45:28Z</time>
      </trkpt>
      <trkpt lat="43.60121" lon="1.1684">
        <ele>294</ele>
        <time>2016-11-04T10:45:33Z</time>
      </trkpt>
      <trkpt lat="43.60123" lon="1.1683">
        <ele>294</ele>
        <time>2016-11-04T10:45:38Z</time>
      </trkpt>
      <trkpt lat="43.60124" lon="1.16816">
        <ele>294</ele>
        <time>2016-11-04T10:45:43Z</time>
      </trkpt>
      <trkpt lat="43.60124" lon="1.16803">
        <ele>294</ele>
        <time>2016-11-04T10:45:48Z</time>
      </trkpt>
      <trkpt lat="43.60124" lon="1.1679">
        <ele>296</ele>
        <time>2016-11-04T10:45:53Z</time>
      </trkpt>
      <trkpt lat="43.60124" lon="1.16777">
        <ele>296</ele>
        <time>2016-11-04T10:45:58Z</time>
      </trkpt>
      <trkpt lat="43.60124" lon="1.16765">
        <ele>296</ele>
        <time>2016-11-04T10:46:03Z</time>
      </trkpt>
      <trkpt lat="43.60123" lon="1.16755">
        <ele>296</ele>
        <time>2016-11-04T10:46:08Z</time>
      </trkpt>
      <trkpt lat="43.60121" lon="1.16743">
        <ele>296</ele>
        <time>2016-11-04T10:46:13Z</time>
      </trkpt>
      <trkpt lat="43.60119" lon="1.1673">
        <ele>296</ele>
        <time>2016-11-04T10:46:18Z</time>
      </trkpt>
      <trkpt lat="43.60117" lon="1.1672">
        <ele>296</ele>
        <time>2016-11-04T10:46:23Z</time>
      </trkpt>
      <trkpt lat="43.60115" lon="1.16709">
        <ele>296</ele>
        <time>2016-11-04T10:46:28Z</time>
      </trkpt>
      <trkpt lat="43.60116" lon="1.16696">
        <ele>295</ele>
        <time>2016-11-04T10:46:33Z</time>
      </trkpt>
      <trkpt lat="43.60115" lon="1.16684">
        <ele>295</ele>
        <time>2016-11-04T10:46:38Z</time>
      </trkpt>
      <trkpt lat="43.60114" lon="1.16674">
        <ele>295</ele>
        <time>2016-11-04T10:46:43Z</time>
      </trkpt>
      <trkpt lat="43.60115" lon="1.16662">
        <ele>295</ele>
        <time>2016-11-04T10:46:48Z</time>
      </trkpt>
      <trkpt lat="43.60119" lon="1.16648">
        <ele>295</ele>
        <time>2016-11-04T10:46:53Z</time>
      </trkpt>
      <trkpt lat="43.60117" lon="1.16636">
        <ele>295</ele>
        <time>2016-11-04T10:46:58Z</time>
      </trkpt>
      <trkpt lat="43.60117" lon="1.16625">
        <ele>295</ele>
        <time>2016-11-04T10:47:03Z</time>
      </trkpt>
      <trkpt lat="43.60118" lon="1.16616">
        <ele>297</ele>
        <time>2016-11-04T10:47:08Z</time>
      </trkpt>
      <trkpt lat="43.60118" lon="1.16608">
        <ele>297</ele>
        <time>2016-11-04T10:47:13Z</time>
      </trkpt>
      <trkpt lat="43.60118" lon="1.16595">
        <ele>297</ele>
        <time>2016-11-04T10:47:18Z</time>
      </trkpt>
      <trkpt lat="43.60118" lon="1.16582">
        <ele>297</ele>
        <time>2016-11-04T10:47:23Z</time>
      </trkpt>
      <trkpt lat="43.60116" lon="1.16569">
        <ele>297</ele>
        <time>2016-11-04T10:47:28Z</time>
      </trkpt>
      <trkpt lat="43.60114" lon="1.16557">
        <ele>297</ele>
        <time>2016-11-04T10:47:33Z</time>
      </trkpt>
      <trkpt lat="43.60113" lon="1.16546">
        <ele>297</ele>
        <time>2016-11-04T10:47:38Z</time>
      </trkpt>
      <trkpt lat="43.60113" lon="1.16533">
        <ele>298</ele>
        <time>2016-11-04T10:47:43Z</time>
      </trkpt>
      <trkpt lat="43.60113" lon="1.16522">
        <ele>298</ele>
        <time>2016-11-04T10:47:48Z</time>
      </trkpt>
      <trkpt lat="43.60114" lon="1.16512">
        <ele>298</ele>
        <time>2016-11-04T10:47:53Z</time>
      </trkpt>
      <trkpt lat="43.60114" lon="1.165">
        <ele>298</ele>
        <time>2016-11-04T10:47:58Z</time>
      </trkpt>
      <trkpt lat="43.60113" lon="1.16489">
        <ele>298</ele>
        <time>2016-11-04T10:48:03Z</time>
      </trkpt>
      <trkpt lat="43.60111" lon="1.16478">
        <ele>298</ele>
        <time>2016-11-04T10:48:08Z</time>
      </trkpt>
      <trkpt lat="43.60109" lon="1.16466">
        <ele>298</ele>
        <time>2016-11-04T10:48:13Z</time>
      </trkpt>
      <trkpt lat="43.60108" lon="1.16457">
        <ele>298</ele>
        <time>2016-11-04T10:48:18Z</time>
      </trkpt>
      <trkpt lat="43.60104" lon="1.16445">
        <ele>298</ele>
        <time>2016-11-04T10:48:23Z</time>
      </trkpt>
      <trkpt lat="43.60101" lon="1.16431">
        <ele>298</ele>
        <time>2016-11-04T10:48:28Z</time>
      </trkpt>
      <trkpt lat="43.60098" lon="1.16422">
        <ele>298</ele>
        <time>2016-11-04T10:48:33Z</time>
      </trkpt>
      <trkpt lat="43.60097" lon="1.16413">
        <ele>298</ele>
        <time>2016-11-04T10:48:38Z</time>
      </trkpt>
      <trkpt lat="43.60097" lon="1.16403">
        <ele>298</ele>
        <time>2016-11-04T10:48:43Z</time>
      </trkpt>
      <trkpt lat="43.60098" lon="1.16392">
        <ele>298</ele>
        <time>2016-11-04T10:48:48Z</time>
      </trkpt>
      <trkpt lat="43.601" lon="1.16383">
        <ele>298</ele>
        <time>2016-11-04T10:48:53Z</time>
      </trkpt>
      <trkpt lat="43.60102" lon="1.1637">
        <ele>293</ele>
        <time>2016-11-04T10:48:58Z</time>
      </trkpt>
      <trkpt lat="43.60103" lon="1.16357">
        <ele>293</ele>
        <time>2016-11-04T10:49:03Z</time>
      </trkpt>
      <trkpt lat="43.60105" lon="1.16346">
        <ele>293</ele>
        <time>2016-11-04T10:49:08Z</time>
      </trkpt>
      <trkpt lat="43.60106" lon="1.16336">
        <ele>293</ele>
        <time>2016-11-04T10:49:13Z</time>
      </trkpt>
      <trkpt lat="43.60108" lon="1.16326">
        <ele>293</ele>
        <time>2016-11-04T10:49:18Z</time>
      </trkpt>
      <trkpt lat="43.60109" lon="1.16316">
        <ele>293</ele>
        <time>2016-11-04T10:49:23Z</time>
      </trkpt>
      <trkpt lat="43.60111" lon="1.16305">
        <ele>293</ele>
        <time>2016-11-04T10:49:28Z</time>
      </trkpt>
      <trkpt lat="43.60112" lon="1.1629">
        <ele>288</ele>
        <time>2016-11-04T10:49:33Z</time>
      </trkpt>
      <trkpt lat="43.60112" lon="1.16277">
        <ele>288</ele>
        <time>2016-11-04T10:49:38Z</time>
      </trkpt>
      <trkpt lat="43.60112" lon="1.16264">
        <ele>288</ele>
        <time>2016-11-04T10:49:43Z</time>
      </trkpt>
      <trkpt lat="43.60114" lon="1.16251">
        <ele>288</ele>
        <time>2016-11-04T10:49:48Z</time>
      </trkpt>
      <trkpt lat="43.60114" lon="1.1624">
        <ele>288</ele>
        <time>2016-11-04T10:49:53Z</time>
      </trkpt>
      <trkpt lat="43.60114" lon="1.1623">
        <ele>288</ele>
        <time>2016-11-04T10:49:58Z</time>
      </trkpt>
      <trkpt lat="43.60115" lon="1.16218">
        <ele>288</ele>
        <time>2016-11-04T10:50:03Z</time>
      </trkpt>
      <trkpt lat="43.60113" lon="1.16209">
        <ele>288</ele>
        <time>2016-11-04T10:50:08Z</time>
      </trkpt>
      <trkpt lat="43.60111" lon="1.16204">
        <ele>289</ele>
        <time>2016-11-04T10:50:13Z</time>
      </trkpt>
      <trkpt lat="43.60115" lon="1.1621">
        <ele>288</ele>
        <time>2016-11-04T10:50:18Z</time>
      </trkpt>
      <trkpt lat="43.60116" lon="1.16221">
        <ele>288</ele>
        <time>2016-11-04T10:50:23Z</time>
      </trkpt>
      <trkpt lat="43.60117" lon="1.16232">
        <ele>288</ele>
        <time>2016-11-04T10:50:28Z</time>
      </trkpt>
      <trkpt lat="43.60116" lon="1.16243">
        <ele>288</ele>
        <time>2016-11-04T10:50:33Z</time>
      </trkpt>
      <trkpt lat="43.60116" lon="1.16254">
        <ele>288</ele>
        <time>2016-11-04T10:50:38Z</time>
      </trkpt>
      <trkpt lat="43.60115" lon="1.16264">
        <ele>288</ele>
        <time>2016-11-04T10:50:43Z</time>
      </trkpt>
      <trkpt lat="43.60115" lon="1.16274">
        <ele>288</ele>
        <time>2016-11-04T10:50:48Z</time>
      </trkpt>
      <trkpt lat="43.60114" lon="1.16285">
        <ele>288</ele>
        <time>2016-11-04T10:50:53Z</time>
      </trkpt>
      <trkpt lat="43.60116" lon="1.16293">
        <ele>293</ele>
        <time>2016-11-04T10:50:58Z</time>
      </trkpt>
      <trkpt lat="43.60121" lon="1.16288">
        <ele>288</ele>
        <time>2016-11-04T10:51:03Z</time>
      </trkpt>
      <trkpt lat="43.60128" lon="1.16288">
        <ele>297</ele>
        <time>2016-11-04T10:51:08Z</time>
      </trkpt>
      <trkpt lat="43.60135" lon="1.16287">
        <ele>297</ele>
        <time>2016-11-04T10:51:13Z</time>
      </trkpt>
      <trkpt lat="43.60141" lon="1.16288">
        <ele>297</ele>
        <time>2016-11-04T10:51:18Z</time>
      </trkpt>
      <trkpt lat="43.60145" lon="1.16292">
        <ele>301</ele>
        <time>2016-11-04T10:51:23Z</time>
      </trkpt>
      <trkpt lat="43.60146" lon="1.163">
        <ele>301</ele>
        <time>2016-11-04T10:51:28Z</time>
      </trkpt>
      <trkpt lat="43.60152" lon="1.16307">
        <ele>301</ele>
        <time>2016-11-04T10:51:33Z</time>
      </trkpt>
      <trkpt lat="43.60159" lon="1.16316">
        <ele>301</ele>
        <time>2016-11-04T10:51:38Z</time>
      </trkpt>
      <trkpt lat="43.60161" lon="1.16323">
        <ele>301</ele>
        <time>2016-11-04T10:51:43Z</time>
      </trkpt>
      <trkpt lat="43.60168" lon="1.16324">
        <ele>301</ele>
        <time>2016-11-04T10:51:48Z</time>
      </trkpt>
      <trkpt lat="43.60179" lon="1.16326">
        <ele>301</ele>
        <time>2016-11-04T10:51:53Z</time>
      </trkpt>
      <trkpt lat="43.60188" lon="1.16322">
        <ele>301</ele>
        <time>2016-11-04T10:51:58Z</time>
      </trkpt>
      <trkpt lat="43.60196" lon="1.16315">
        <ele>301</ele>
        <time>2016-11-04T10:52:03Z</time>
      </trkpt>
      <trkpt lat="43.60202" lon="1.16307">
        <ele>301</ele>
        <time>2016-11-04T10:52:08Z</time>
      </trkpt>
      <trkpt lat="43.60209" lon="1.16298">
        <ele>297</ele>
        <time>2016-11-04T10:52:13Z</time>
      </trkpt>
      <trkpt lat="43.60216" lon="1.16292">
        <ele>297</ele>
        <time>2016-11-04T10:52:18Z</time>
      </trkpt>
      <trkpt lat="43.60222" lon="1.1629">
        <ele>299</ele>
        <time>2016-11-04T10:52:23Z</time>
      </trkpt>
      <trkpt lat="43.60228" lon="1.16291">
        <ele>299</ele>
        <time>2016-11-04T10:52:28Z</time>
      </trkpt>
      <trkpt lat="43.60235" lon="1.16293">
        <ele>297</ele>
        <time>2016-11-04T10:52:33Z</time>
      </trkpt>
      <trkpt lat="43.60242" lon="1.16299">
        <ele>297</ele>
        <time>2016-11-04T10:52:38Z</time>
      </trkpt>
      <trkpt lat="43.60249" lon="1.16303">
        <ele>297</ele>
        <time>2016-11-04T10:52:43Z</time>
      </trkpt>
      <trkpt lat="43.60256" lon="1.16304">
        <ele>297</ele>
        <time>2016-11-04T10:52:48Z</time>
      </trkpt>
      <trkpt lat="43.60263" lon="1.16308">
        <ele>297</ele>
        <time>2016-11-04T10:52:53Z</time>
      </trkpt>
      <trkpt lat="43.60271" lon="1.16309">
        <ele>297</ele>
        <time>2016-11-04T10:52:58Z</time>
      </trkpt>
      <trkpt lat="43.60279" lon="1.16313">
        <ele>297</ele>
        <time>2016-11-04T10:53:03Z</time>
      </trkpt>
      <trkpt lat="43.60285" lon="1.16317">
        <ele>297</ele>
        <time>2016-11-04T10:53:08Z</time>
      </trkpt>
      <trkpt lat="43.60291" lon="1.16324">
        <ele>297</ele>
        <time>2016-11-04T10:53:13Z</time>
      </trkpt>
      <trkpt lat="43.60296" lon="1.16329">
        <ele>292</ele>
        <time>2016-11-04T10:53:18Z</time>
      </trkpt>
      <trkpt lat="43.603" lon="1.16338">
        <ele>292</ele>
        <time>2016-11-04T10:53:23Z</time>
      </trkpt>
      <trkpt lat="43.60303" lon="1.16344">
        <ele>292</ele>
        <time>2016-11-04T10:53:28Z</time>
      </trkpt>
      <trkpt lat="43.60308" lon="1.16353">
        <ele>292</ele>
        <time>2016-11-04T10:53:33Z</time>
      </trkpt>
      <trkpt lat="43.60315" lon="1.16362">
        <ele>292</ele>
        <time>2016-11-04T10:53:38Z</time>
      </trkpt>
      <trkpt lat="43.60319" lon="1.16371">
        <ele>292</ele>
        <time>2016-11-04T10:53:43Z</time>
      </trkpt>
      <trkpt lat="43.60325" lon="1.16379">
        <ele>292</ele>
        <time>2016-11-04T10:53:48Z</time>
      </trkpt>
      <trkpt lat="43.60329" lon="1.16383">
        <ele>292</ele>
        <time>2016-11-04T10:53:53Z</time>
      </trkpt>
      <trkpt lat="43.60333" lon="1.1639">
        <ele>292</ele>
        <time>2016-11-04T10:53:58Z</time>
      </trkpt>
      <trkpt lat="43.60337" lon="1.16398">
        <ele>292</ele>
        <time>2016-11-04T10:54:03Z</time>
      </trkpt>
      <trkpt lat="43.60341" lon="1.1641">
        <ele>292</ele>
        <time>2016-11-04T10:54:08Z</time>
      </trkpt>
      <trkpt lat="43.60349" lon="1.16418">
        <ele>292</ele>
        <time>2016-11-04T10:54:13Z</time>
      </trkpt>
      <trkpt lat="43.60354" lon="1.16425">
        <ele>292</ele>
        <time>2016-11-04T10:54:18Z</time>
      </trkpt>
      <trkpt lat="43.60363" lon="1.16435">
        <ele>292</ele>
        <time>2016-11-04T10:54:23Z</time>
      </trkpt>
      <trkpt lat="43.60366" lon="1.16443">
        <ele>292</ele>
        <time>2016-11-04T10:54:28Z</time>
      </trkpt>
      <trkpt lat="43.6037" lon="1.16451">
        <ele>292</ele>
        <time>2016-11-04T10:54:33Z</time>
      </trkpt>
      <trkpt lat="43.60373" lon="1.16459">
        <ele>291</ele>
        <time>2016-11-04T10:54:38Z</time>
      </trkpt>
      <trkpt lat="43.60375" lon="1.16466">
        <ele>284</ele>
        <time>2016-11-04T10:54:43Z</time>
      </trkpt>
      <trkpt lat="43.60377" lon="1.16478">
        <ele>284</ele>
        <time>2016-11-04T10:54:48Z</time>
      </trkpt>
      <trkpt lat="43.6038" lon="1.16491">
        <ele>284</ele>
        <time>2016-11-04T10:54:53Z</time>
      </trkpt>
      <trkpt lat="43.60385" lon="1.16506">
        <ele>284</ele>
        <time>2016-11-04T10:54:58Z</time>
      </trkpt>
      <trkpt lat="43.60387" lon="1.16516">
        <ele>284</ele>
        <time>2016-11-04T10:55:03Z</time>
      </trkpt>
      <trkpt lat="43.60387" lon="1.16525">
        <ele>284</ele>
        <time>2016-11-04T10:55:08Z</time>
      </trkpt>
      <trkpt lat="43.60389" lon="1.16536">
        <ele>284</ele>
        <time>2016-11-04T10:55:13Z</time>
      </trkpt>
      <trkpt lat="43.60391" lon="1.16549">
        <ele>287</ele>
        <time>2016-11-04T10:55:18Z</time>
      </trkpt>
      <trkpt lat="43.60393" lon="1.16561">
        <ele>287</ele>
        <time>2016-11-04T10:55:23Z</time>
      </trkpt>
      <trkpt lat="43.60398" lon="1.16573">
        <ele>287</ele>
        <time>2016-11-04T10:55:28Z</time>
      </trkpt>
      <trkpt lat="43.60403" lon="1.16586">
        <ele>287</ele>
        <time>2016-11-04T10:55:33Z</time>
      </trkpt>
      <trkpt lat="43.60405" lon="1.16596">
        <ele>287</ele>
        <time>2016-11-04T10:55:38Z</time>
      </trkpt>
      <trkpt lat="43.60409" lon="1.16605">
        <ele>287</ele>
        <time>2016-11-04T10:55:43Z</time>
      </trkpt>
      <trkpt lat="43.60411" lon="1.16612">
        <ele>287</ele>
        <time>2016-11-04T10:55:48Z</time>
      </trkpt>
      <trkpt lat="43.60414" lon="1.16622">
        <ele>287</ele>
        <time>2016-11-04T10:55:53Z</time>
      </trkpt>
      <trkpt lat="43.6042" lon="1.16632">
        <ele>288</ele>
        <time>2016-11-04T10:55:58Z</time>
      </trkpt>
      <trkpt lat="43.60428" lon="1.16637">
        <ele>288</ele>
        <time>2016-11-04T10:56:03Z</time>
      </trkpt>
      <trkpt lat="43.60435" lon="1.1664">
        <ele>288</ele>
        <time>2016-11-04T10:56:08Z</time>
      </trkpt>
      <trkpt lat="43.60439" lon="1.16643">
        <ele>288</ele>
        <time>2016-11-04T10:56:13Z</time>
      </trkpt>
      <trkpt lat="43.60444" lon="1.16649">
        <ele>288</ele>
        <time>2016-11-04T10:56:18Z</time>
      </trkpt>
      <trkpt lat="43.60451" lon="1.16656">
        <ele>288</ele>
        <time>2016-11-04T10:56:23Z</time>
      </trkpt>
      <trkpt lat="43.60459" lon="1.1666">
        <ele>279</ele>
        <time>2016-11-04T10:56:28Z</time>
      </trkpt>
      <trkpt lat="43.60464" lon="1.16665">
        <ele>279</ele>
        <time>2016-11-04T10:56:33Z</time>
      </trkpt>
      <trkpt lat="43.60469" lon="1.16671">
        <ele>279</ele>
        <time>2016-11-04T10:56:38Z</time>
      </trkpt>
      <trkpt lat="43.60473" lon="1.16678">
        <ele>279</ele>
        <time>2016-11-04T10:56:43Z</time>
      </trkpt>
      <trkpt lat="43.60482" lon="1.16686">
        <ele>279</ele>
        <time>2016-11-04T10:56:48Z</time>
      </trkpt>
      <trkpt lat="43.60488" lon="1.16693">
        <ele>279</ele>
        <time>2016-11-04T10:56:53Z</time>
      </trkpt>
      <trkpt lat="43.60493" lon="1.16702">
        <ele>279</ele>
        <time>2016-11-04T10:56:58Z</time>
      </trkpt>
      <trkpt lat="43.60496" lon="1.16707">
        <ele>279</ele>
        <time>2016-11-04T10:57:03Z</time>
      </trkpt>
      <trkpt lat="43.60501" lon="1.16713">
        <ele>279</ele>
        <time>2016-11-04T10:57:08Z</time>
      </trkpt>
      <trkpt lat="43.60504" lon="1.16722">
        <ele>279</ele>
        <time>2016-11-04T10:57:13Z</time>
      </trkpt>
      <trkpt lat="43.60511" lon="1.16728">
        <ele>279</ele>
        <time>2016-11-04T10:57:18Z</time>
      </trkpt>
      <trkpt lat="43.6052" lon="1.16735">
        <ele>279</ele>
        <time>2016-11-04T10:57:23Z</time>
      </trkpt>
      <trkpt lat="43.60528" lon="1.16742">
        <ele>279</ele>
        <time>2016-11-04T10:57:28Z</time>
      </trkpt>
      <trkpt lat="43.60535" lon="1.16746">
        <ele>279</ele>
        <time>2016-11-04T10:57:33Z</time>
      </trkpt>
      <trkpt lat="43.60542" lon="1.16752">
        <ele>274</ele>
        <time>2016-11-04T10:57:38Z</time>
      </trkpt>
      <trkpt lat="43.60548" lon="1.1676">
        <ele>274</ele>
        <time>2016-11-04T10:57:43Z</time>
      </trkpt>
      <trkpt lat="43.60554" lon="1.16769">
        <ele>274</ele>
        <time>2016-11-04T10:57:48Z</time>
      </trkpt>
      <trkpt lat="43.60558" lon="1.16778">
        <ele>274</ele>
        <time>2016-11-04T10:57:53Z</time>
      </trkpt>
      <trkpt lat="43.60562" lon="1.16786">
        <ele>274</ele>
        <time>2016-11-04T10:57:58Z</time>
      </trkpt>
      <trkpt lat="43.60568" lon="1.16794">
        <ele>277</ele>
        <time>2016-11-04T10:58:03Z</time>
      </trkpt>
      <trkpt lat="43.60571" lon="1.16805">
        <ele>277</ele>
        <time>2016-11-04T10:58:08Z</time>
      </trkpt>
      <trkpt lat="43.60575" lon="1.16815">
        <ele>277</ele>
        <time>2016-11-04T10:58:13Z</time>
      </trkpt>
      <trkpt lat="43.60576" lon="1.16819">
        <ele>277</ele>
        <time>2016-11-04T10:58:18Z</time>
      </trkpt>
      <trkpt lat="43.60579" lon="1.16829">
        <ele>277</ele>
        <time>2016-11-04T10:58:23Z</time>
      </trkpt>
      <trkpt lat="43.60583" lon="1.16839">
        <ele>277</ele>
        <time>2016-11-04T10:58:28Z</time>
      </trkpt>
      <trkpt lat="43.60587" lon="1.16846">
        <ele>277</ele>
        <time>2016-11-04T10:58:33Z</time>
      </trkpt>
      <trkpt lat="43.6059" lon="1.16855">
        <ele>277</ele>
        <time>2016-11-04T10:58:38Z</time>
      </trkpt>
      <trkpt lat="43.60595" lon="1.1686">
        <ele>277</ele>
        <time>2016-11-04T10:58:43Z</time>
      </trkpt>
      <trkpt lat="43.60599" lon="1.16869">
        <ele>277</ele>
        <time>2016-11-04T10:58:48Z</time>
      </trkpt>
      <trkpt lat="43.60602" lon="1.16879">
        <ele>280</ele>
        <time>2016-11-04T10:58:53Z</time>
      </trkpt>
      <trkpt lat="43.6061" lon="1.16889">
        <ele>280</ele>
        <time>2016-11-04T10:58:58Z</time>
      </trkpt>
      <trkpt lat="43.60613" lon="1.16895">
        <ele>280</ele>
        <time>2016-11-04T10:59:03Z</time>
      </trkpt>
      <trkpt lat="43.60616" lon="1.16904">
        <ele>280</ele>
        <time>2016-11-04T10:59:08Z</time>
      </trkpt>
      <trkpt lat="43.60618" lon="1.16913">
        <ele>280</ele>
        <time>2016-11-04T10:59:13Z</time>
      </trkpt>
      <trkpt lat="43.60621" lon="1.16924">
        <ele>280</ele>
        <time>2016-11-04T10:59:18Z</time>
      </trkpt>
      <trkpt lat="43.60626" lon="1.16937">
        <ele>273</ele>
        <time>2016-11-04T10:59:23Z</time>
      </trkpt>
      <trkpt lat="43.60626" lon="1.16945">
        <ele>273</ele>
        <time>2016-11-04T10:59:28Z</time>
      </trkpt>
      <trkpt lat="43.60623" lon="1.16951">
        <ele>280</ele>
        <time>2016-11-04T10:59:33Z</time>
      </trkpt>
      <trkpt lat="43.60621" lon="1.16958">
        <ele>280</ele>
        <time>2016-11-04T10:59:38Z</time>
      </trkpt>
      <trkpt lat="43.60628" lon="1.16969">
        <ele>272</ele>
        <time>2016-11-04T10:59:43Z</time>
      </trkpt>
      <trkpt lat="43.6063" lon="1.1698">
        <ele>272</ele>
        <time>2016-11-04T10:59:48Z</time>
      </trkpt>
      <trkpt lat="43.60634" lon="1.16993">
        <ele>272</ele>
        <time>2016-11-04T10:59:53Z</time>
      </trkpt>
      <trkpt lat="43.60636" lon="1.17003">
        <ele>272</ele>
        <time>2016-11-04T10:59:58Z</time>
      </trkpt>
      <trkpt lat="43.60637" lon="1.17013">
        <ele>272</ele>
        <time>2016-11-04T11:00:03Z</time>
      </trkpt>
      <trkpt lat="43.6064" lon="1.17024">
        <ele>272</ele>
        <time>2016-11-04T11:00:08Z</time>
      </trkpt>
      <trkpt lat="43.60645" lon="1.17034">
        <ele>272</ele>
        <time>2016-11-04T11:00:13Z</time>
      </trkpt>
      <trkpt lat="43.6065" lon="1.17043">
        <ele>273</ele>
        <time>2016-11-04T11:00:18Z</time>
      </trkpt>
      <trkpt lat="43.60653" lon="1.17053">
        <ele>273</ele>
        <time>2016-11-04T11:00:23Z</time>
      </trkpt>
      <trkpt lat="43.60657" lon="1.17061">
        <ele>273</ele>
        <time>2016-11-04T11:00:28Z</time>
      </trkpt>
      <trkpt lat="43.60659" lon="1.17072">
        <ele>273</ele>
        <time>2016-11-04T11:00:33Z</time>
      </trkpt>
      <trkpt lat="43.6066" lon="1.17084">
        <ele>273</ele>
        <time>2016-11-04T11:00:38Z</time>
      </trkpt>
      <trkpt lat="43.60664" lon="1.17091">
        <ele>273</ele>
        <time>2016-11-04T11:00:43Z</time>
      </trkpt>
      <trkpt lat="43.60663" lon="1.17103">
        <ele>273</ele>
        <time>2016-11-04T11:00:48Z</time>
      </trkpt>
      <trkpt lat="43.60667" lon="1.17113">
        <ele>273</ele>
        <time>2016-11-04T11:00:53Z</time>
      </trkpt>
      <trkpt lat="43.60669" lon="1.17121">
        <ele>273</ele>
        <time>2016-11-04T11:00:58Z</time>
      </trkpt>
      <trkpt lat="43.60672" lon="1.1713">
        <ele>278</ele>
        <time>2016-11-04T11:01:03Z</time>
      </trkpt>
      <trkpt lat="43.60676" lon="1.17137">
        <ele>278</ele>
        <time>2016-11-04T11:01:08Z</time>
      </trkpt>
      <trkpt lat="43.6068" lon="1.17145">
        <ele>278</ele>
        <time>2016-11-04T11:01:13Z</time>
      </trkpt>
      <trkpt lat="43.60684" lon="1.17152">
        <ele>278</ele>
        <time>2016-11-04T11:01:18Z</time>
      </trkpt>
      <trkpt lat="43.60688" lon="1.17161">
        <ele>278</ele>
        <time>2016-11-04T11:01:23Z</time>
      </trkpt>
      <trkpt lat="43.60688" lon="1.17173">
        <ele>278</ele>
        <time>2016-11-04T11:01:28Z</time>
      </trkpt>
      <trkpt lat="43.60691" lon="1.17181">
        <ele>278</ele>
        <time>2016-11-04T11:01:33Z</time>
      </trkpt>
      <trkpt lat="43.60692" lon="1.1719">
        <ele>278</ele>
        <time>2016-11-04T11:01:38Z</time>
      </trkpt>
      <trkpt lat="43.60693" lon="1.17201">
        <ele>278</ele>
        <time>2016-11-04T11:01:43Z</time>
      </trkpt>
      <trkpt lat="43.60698" lon="1.1721">
        <ele>277</ele>
        <time>2016-11-04T11:01:48Z</time>
      </trkpt>
      <trkpt lat="43.60703" lon="1.17218">
        <ele>277</ele>
        <time>2016-11-04T11:01:53Z</time>
      </trkpt>
      <trkpt lat="43.6071" lon="1.17228">
        <ele>270</ele>
        <time>2016-11-04T11:01:58Z</time>
      </trkpt>
      <trkpt lat="43.60712" lon="1.17236">
        <ele>270</ele>
        <time>2016-11-04T11:02:03Z</time>
      </trkpt>
      <trkpt lat="43.60716" lon="1.17245">
        <ele>270</ele>
        <time>2016-11-04T11:02:08Z</time>
      </trkpt>
      <trkpt lat="43.60721" lon="1.17253">
        <ele>270</ele>
        <time>2016-11-04T11:02:13Z</time>
      </trkpt>
      <trkpt lat="43.60722" lon="1.17268">
        <ele>270</ele>
        <time>2016-11-04T11:02:18Z</time>
      </trkpt>
      <trkpt lat="43.60724" lon="1.17275">
        <ele>270</ele>
        <time>2016-11-04T11:02:23Z</time>
      </trkpt>
      <trkpt lat="43.60729" lon="1.17284">
        <ele>270</ele>
        <time>2016-11-04T11:02:28Z</time>
      </trkpt>
      <trkpt lat="43.60738" lon="1.17292">
        <ele>273</ele>
        <time>2016-11-04T11:02:33Z</time>
      </trkpt>
      <trkpt lat="43.60746" lon="1.17302">
        <ele>273</ele>
        <time>2016-11-04T11:02:38Z</time>
      </trkpt>
      <trkpt lat="43.60754" lon="1.17309">
        <ele>273</ele>
        <time>2016-11-04T11:02:43Z</time>
      </trkpt>
      <trkpt lat="43.60762" lon="1.17313">
        <ele>273</ele>
        <time>2016-11-04T11:02:48Z</time>
      </trkpt>
      <trkpt lat="43.60768" lon="1.17313">
        <ele>273</ele>
        <time>2016-11-04T11:02:53Z</time>
      </trkpt>
      <trkpt lat="43.60775" lon="1.17316">
        <ele>273</ele>
        <time>2016-11-04T11:02:58Z</time>
      </trkpt>
      <trkpt lat="43.60785" lon="1.17321">
        <ele>273</ele>
        <time>2016-11-04T11:03:03Z</time>
      </trkpt>
      <trkpt lat="43.60791" lon="1.17321">
        <ele>273</ele>
        <time>2016-11-04T11:03:08Z</time>
      </trkpt>
      <trkpt lat="43.60801" lon="1.17328">
        <ele>267</ele>
        <time>2016-11-04T11:03:13Z</time>
      </trkpt>
      <trkpt lat="43.60807" lon="1.17333">
        <ele>267</ele>
        <time>2016-11-04T11:03:18Z</time>
      </trkpt>
      <trkpt lat="43.60814" lon="1.1734">
        <ele>267</ele>
        <time>2016-11-04T11:03:23Z</time>
      </trkpt>
      <trkpt lat="43.60821" lon="1.17344">
        <ele>267</ele>
        <time>2016-11-04T11:03:28Z</time>
      </trkpt>
      <trkpt lat="43.60829" lon="1.17347">
        <ele>267</ele>
        <time>2016-11-04T11:03:33Z</time>
      </trkpt>
      <trkpt lat="43.60834" lon="1.17354">
        <ele>267</ele>
        <time>2016-11-04T11:03:38Z</time>
      </trkpt>
      <trkpt lat="43.6084" lon="1.1736">
        <ele>267</ele>
        <time>2016-11-04T11:03:43Z</time>
      </trkpt>
      <trkpt lat="43.60849" lon="1.17366">
        <ele>267</ele>
        <time>2016-11-04T11:03:48Z</time>
      </trkpt>
      <trkpt lat="43.60857" lon="1.17368">
        <ele>267</ele>
        <time>2016-11-04T11:03:53Z</time>
      </trkpt>
      <trkpt lat="43.60864" lon="1.17366">
        <ele>267</ele>
        <time>2016-11-04T11:03:58Z</time>
      </trkpt>
      <trkpt lat="43.60871" lon="1.17363">
        <ele>267</ele>
        <time>2016-11-04T11:04:03Z</time>
      </trkpt>
      <trkpt lat="43.60876" lon="1.17364">
        <ele>261</ele>
        <time>2016-11-04T11:04:08Z</time>
      </trkpt>
      <trkpt lat="43.60886" lon="1.17366">
        <ele>261</ele>
        <time>2016-11-04T11:04:13Z</time>
      </trkpt>
      <trkpt lat="43.60894" lon="1.17368">
        <ele>261</ele>
        <time>2016-11-04T11:04:18Z</time>
      </trkpt>
      <trkpt lat="43.60901" lon="1.17373">
        <ele>261</ele>
        <time>2016-11-04T11:04:23Z</time>
      </trkpt>
      <trkpt lat="43.60909" lon="1.17379">
        <ele>266</ele>
        <time>2016-11-04T11:04:28Z</time>
      </trkpt>
      <trkpt lat="43.60916" lon="1.17384">
        <ele>266</ele>
        <time>2016-11-04T11:04:33Z</time>
      </trkpt>
      <trkpt lat="43.60921" lon="1.17388">
        <ele>266</ele>
        <time>2016-11-04T11:04:38Z</time>
      </trkpt>
      <trkpt lat="43.60929" lon="1.17394">
        <ele>266</ele>
        <time>2016-11-04T11:04:43Z</time>
      </trkpt>
      <trkpt lat="43.60935" lon="1.17398">
        <ele>266</ele>
        <time>2016-11-04T11:04:48Z</time>
      </trkpt>
      <trkpt lat="43.60942" lon="1.17402">
        <ele>266</ele>
        <time>2016-11-04T11:04:53Z</time>
      </trkpt>
      <trkpt lat="43.6095" lon="1.17406">
        <ele>266</ele>
        <time>2016-11-04T11:04:58Z</time>
      </trkpt>
      <trkpt lat="43.60958" lon="1.17411">
        <ele>266</ele>
        <time>2016-11-04T11:05:03Z</time>
      </trkpt>
      <trkpt lat="43.60966" lon="1.17414">
        <ele>264</ele>
        <time>2016-11-04T11:05:08Z</time>
      </trkpt>
      <trkpt lat="43.60974" lon="1.17419">
        <ele>264</ele>
        <time>2016-11-04T11:05:13Z</time>
      </trkpt>
      <trkpt lat="43.60985" lon="1.17427">
        <ele>264</ele>
        <time>2016-11-04T11:05:18Z</time>
      </trkpt>
      <trkpt lat="43.60992" lon="1.17432">
        <ele>264</ele>
        <time>2016-11-04T11:05:23Z</time>
      </trkpt>
      <trkpt lat="43.61001" lon="1.17436">
        <ele>264</ele>
        <time>2016-11-04T11:05:28Z</time>
      </trkpt>
      <trkpt lat="43.61007" lon="1.17437">
        <ele>264</ele>
        <time>2016-11-04T11:05:33Z</time>
      </trkpt>
      <trkpt lat="43.61013" lon="1.17444">
        <ele>264</ele>
        <time>2016-11-04T11:05:38Z</time>
      </trkpt>
      <trkpt lat="43.61021" lon="1.1745">
        <ele>264</ele>
        <time>2016-11-04T11:05:43Z</time>
      </trkpt>
      <trkpt lat="43.6103" lon="1.17454">
        <ele>264</ele>
        <time>2016-11-04T11:05:48Z</time>
      </trkpt>
      <trkpt lat="43.61035" lon="1.17459">
        <ele>268</ele>
        <time>2016-11-04T11:05:53Z</time>
      </trkpt>
      <trkpt lat="43.61038" lon="1.17467">
        <ele>268</ele>
        <time>2016-11-04T11:05:58Z</time>
      </trkpt>
      <trkpt lat="43.61041" lon="1.17474">
        <ele>268</ele>
        <time>2016-11-04T11:06:03Z</time>
      </trkpt>
      <trkpt lat="43.61046" lon="1.17481">
        <ele>261</ele>
        <time>2016-11-04T11:06:08Z</time>
      </trkpt>
      <trkpt lat="43.61054" lon="1.17486">
        <ele>261</ele>
        <time>2016-11-04T11:06:13Z</time>
      </trkpt>
      <trkpt lat="43.61061" lon="1.1749">
        <ele>261</ele>
        <time>2016-11-04T11:06:18Z</time>
      </trkpt>
      <trkpt lat="43.6107" lon="1.17495">
        <ele>261</ele>
        <time>2016-11-04T11:06:23Z</time>
      </trkpt>
      <trkpt lat="43.61074" lon="1.17498">
        <ele>261</ele>
        <time>2016-11-04T11:06:28Z</time>
      </trkpt>
      <trkpt lat="43.61077" lon="1.17507">
        <ele>261</ele>
        <time>2016-11-04T11:06:33Z</time>
      </trkpt>
      <trkpt lat="43.61081" lon="1.17517">
        <ele>261</ele>
        <time>2016-11-04T11:06:38Z</time>
      </trkpt>
      <trkpt lat="43.61085" lon="1.17526">
        <ele>261</ele>
        <time>2016-11-04T11:06:43Z</time>
      </trkpt>
      <trkpt lat="43.61087" lon="1.17534">
        <ele>261</ele>
        <time>2016-11-04T11:06:48Z</time>
      </trkpt>
      <trkpt lat="43.61091" lon="1.1754">
        <ele>261</ele>
        <time>2016-11-04T11:06:53Z</time>
      </trkpt>
      <trkpt lat="43.61098" lon="1.17553">
        <ele>265</ele>
        <time>2016-11-04T11:06:58Z</time>
      </trkpt>
      <trkpt lat="43.611" lon="1.17564">
        <ele>265</ele>
        <time>2016-11-04T11:07:03Z</time>
      </trkpt>
      <trkpt lat="43.61108" lon="1.17567">
        <ele>265</ele>
        <time>2016-11-04T11:07:08Z</time>
      </trkpt>
      <trkpt lat="43.61114" lon="1.17569">
        <ele>265</ele>
        <time>2016-11-04T11:07:13Z</time>
      </trkpt>
      <trkpt lat="43.61122" lon="1.17573">
        <ele>265</ele>
        <time>2016-11-04T11:07:18Z</time>
      </trkpt>
      <trkpt lat="43.61133" lon="1.17578">
        <ele>259</ele>
        <time>2016-11-04T11:07:23Z</time>
      </trkpt>
      <trkpt lat="43.6114" lon="1.17583">
        <ele>259</ele>
        <time>2016-11-04T11:07:28Z</time>
      </trkpt>
      <trkpt lat="43.61142" lon="1.17592">
        <ele>259</ele>
        <time>2016-11-04T11:07:33Z</time>
      </trkpt>
      <trkpt lat="43.61148" lon="1.17597">
        <ele>259</ele>
        <time>2016-11-04T11:07:38Z</time>
      </trkpt>
      <trkpt lat="43.61154" lon="1.17603">
        <ele>259</ele>
        <time>2016-11-04T11:07:43Z</time>
      </trkpt>
      <trkpt lat="43.61158" lon="1.1761">
        <ele>259</ele>
        <time>2016-11-04T11:07:48Z</time>
      </trkpt>
      <trkpt lat="43.6116" lon="1.17619">
        <ele>259</ele>
        <time>2016-11-04T11:07:53Z</time>
      </trkpt>
      <trkpt lat="43.61162" lon="1.17627">
        <ele>263</ele>
        <time>2016-11-04T11:07:58Z</time>
      </trkpt>
      <trkpt lat="43.61167" lon="1.17632">
        <ele>263</ele>
        <time>2016-11-04T11:08:03Z</time>
      </trkpt>
      <trkpt lat="43.61174" lon="1.17639">
        <ele>263</ele>
        <time>2016-11-04T11:08:08Z</time>
      </trkpt>
      <trkpt lat="43.6118" lon="1.17647">
        <ele>263</ele>
        <time>2016-11-04T11:08:13Z</time>
      </trkpt>
      <trkpt lat="43.61183" lon="1.17652">
        <ele>263</ele>
        <time>2016-11-04T11:08:18Z</time>
      </trkpt>
      <trkpt lat="43.61191" lon="1.17661">
        <ele>263</ele>
        <time>2016-11-04T11:08:23Z</time>
      </trkpt>
      <trkpt lat="43.61198" lon="1.17671">
        <ele>263</ele>
        <time>2016-11-04T11:08:28Z</time>
      </trkpt>
      <trkpt lat="43.61203" lon="1.17679">
        <ele>263</ele>
        <time>2016-11-04T11:08:33Z</time>
      </trkpt>
      <trkpt lat="43.61207" lon="1.17685">
        <ele>263</ele>
        <time>2016-11-04T11:08:38Z</time>
      </trkpt>
      <trkpt lat="43.61211" lon="1.1769">
        <ele>258</ele>
        <time>2016-11-04T11:08:43Z</time>
      </trkpt>
      <trkpt lat="43.61213" lon="1.17699">
        <ele>258</ele>
        <time>2016-11-04T11:08:48Z</time>
      </trkpt>
      <trkpt lat="43.61218" lon="1.1771">
        <ele>261</ele>
        <time>2016-11-04T11:08:53Z</time>
      </trkpt>
      <trkpt lat="43.6122" lon="1.17715">
        <ele>261</ele>
        <time>2016-11-04T11:08:58Z</time>
      </trkpt>
      <trkpt lat="43.61218" lon="1.17721">
        <ele>261</ele>
        <time>2016-11-04T11:09:03Z</time>
      </trkpt>
      <trkpt lat="43.61219" lon="1.17729">
        <ele>261</ele>
        <time>2016-11-04T11:09:08Z</time>
      </trkpt>
      <trkpt lat="43.61222" lon="1.1774">
        <ele>261</ele>
        <time>2016-11-04T11:09:13Z</time>
      </trkpt>
      <trkpt lat="43.61228" lon="1.17748">
        <ele>261</ele>
        <time>2016-11-04T11:09:18Z</time>
      </trkpt>
      <trkpt lat="43.61235" lon="1.17755">
        <ele>261</ele>
        <time>2016-11-04T11:09:23Z</time>
      </trkpt>
      <trkpt lat="43.61242" lon="1.17762">
        <ele>261</ele>
        <time>2016-11-04T11:09:28Z</time>
      </trkpt>
      <trkpt lat="43.61248" lon="1.17769">
        <ele>261</ele>
        <time>2016-11-04T11:09:33Z</time>
      </trkpt>
      <trkpt lat="43.6125" lon="1.17776">
        <ele>261</ele>
        <time>2016-11-04T11:09:38Z</time>
      </trkpt>
      <trkpt lat="43.61256" lon="1.17783">
        <ele>261</ele>
        <time>2016-11-04T11:09:43Z</time>
      </trkpt>
      <trkpt lat="43.61265" lon="1.17789">
        <ele>261</ele>
        <time>2016-11-04T11:09:48Z</time>
      </trkpt>
      <trkpt lat="43.61268" lon="1.17799">
        <ele>260</ele>
        <time>2016-11-04T11:09:53Z</time>
      </trkpt>
      <trkpt lat="43.61276" lon="1.17803">
        <ele>260</ele>
        <time>2016-11-04T11:09:58Z</time>
      </trkpt>
      <trkpt lat="43.6128" lon="1.17806">
        <ele>260</ele>
        <time>2016-11-04T11:10:03Z</time>
      </trkpt>
      <trkpt lat="43.61284" lon="1.17813">
        <ele>260</ele>
        <time>2016-11-04T11:10:08Z</time>
      </trkpt>
      <trkpt lat="43.61288" lon="1.17823">
        <ele>260</ele>
        <time>2016-11-04T11:10:13Z</time>
      </trkpt>
      <trkpt lat="43.61293" lon="1.17829">
        <ele>258</ele>
        <time>2016-11-04T11:10:18Z</time>
      </trkpt>
      <trkpt lat="43.61298" lon="1.17838">
        <ele>258</ele>
        <time>2016-11-04T11:10:23Z</time>
      </trkpt>
      <trkpt lat="43.61301" lon="1.17846">
        <ele>258</ele>
        <time>2016-11-04T11:10:28Z</time>
      </trkpt>
      <trkpt lat="43.61303" lon="1.17856">
        <ele>258</ele>
        <time>2016-11-04T11:10:33Z</time>
      </trkpt>
      <trkpt lat="43.61306" lon="1.17866">
        <ele>258</ele>
        <time>2016-11-04T11:10:38Z</time>
      </trkpt>
      <trkpt lat="43.61309" lon="1.17875">
        <ele>258</ele>
        <time>2016-11-04T11:10:43Z</time>
      </trkpt>
      <trkpt lat="43.61316" lon="1.17882">
        <ele>258</ele>
        <time>2016-11-04T11:10:48Z</time>
      </trkpt>
      <trkpt lat="43.61322" lon="1.17886">
        <ele>258</ele>
        <time>2016-11-04T11:10:53Z</time>
      </trkpt>
      <trkpt lat="43.61329" lon="1.17893">
        <ele>258</ele>
        <time>2016-11-04T11:10:58Z</time>
      </trkpt>
      <trkpt lat="43.61336" lon="1.17899">
        <ele>258</ele>
        <time>2016-11-04T11:11:03Z</time>
      </trkpt>
      <trkpt lat="43.61341" lon="1.17903">
        <ele>258</ele>
        <time>2016-11-04T11:11:08Z</time>
      </trkpt>
      <trkpt lat="43.61348" lon="1.17908">
        <ele>258</ele>
        <time>2016-11-04T11:11:13Z</time>
      </trkpt>
      <trkpt lat="43.61353" lon="1.17915">
        <ele>258</ele>
        <time>2016-11-04T11:11:18Z</time>
      </trkpt>
      <trkpt lat="43.61355" lon="1.17921">
        <ele>258</ele>
        <time>2016-11-04T11:11:23Z</time>
      </trkpt>
      <trkpt lat="43.61355" lon="1.17926">
        <ele>258</ele>
        <time>2016-11-04T11:11:28Z</time>
      </trkpt>
      <trkpt lat="43.6136" lon="1.17933">
        <ele>258</ele>
        <time>2016-11-04T11:11:33Z</time>
      </trkpt>
      <trkpt lat="43.61365" lon="1.17938">
        <ele>258</ele>
        <time>2016-11-04T11:11:38Z</time>
      </trkpt>
      <trkpt lat="43.61368" lon="1.17944">
        <ele>258</ele>
        <time>2016-11-04T11:11:43Z</time>
      </trkpt>
      <trkpt lat="43.61375" lon="1.17952">
        <ele>259</ele>
        <time>2016-11-04T11:11:48Z</time>
      </trkpt>
      <trkpt lat="43.6138" lon="1.17957">
        <ele>259</ele>
        <time>2016-11-04T11:11:53Z</time>
      </trkpt>
      <trkpt lat="43.61384" lon="1.17957">
        <ele>259</ele>
        <time>2016-11-04T11:11:58Z</time>
      </trkpt>
      <trkpt lat="43.61387" lon="1.17957">
        <ele>259</ele>
        <time>2016-11-04T11:12:03Z</time>
      </trkpt>
      <trkpt lat="43.61391" lon="1.17955">
        <ele>259</ele>
        <time>2016-11-04T11:12:08Z</time>
      </trkpt>
      <trkpt lat="43.61396" lon="1.17954">
        <ele>259</ele>
        <time>2016-11-04T11:12:13Z</time>
      </trkpt>
      <trkpt lat="43.614" lon="1.17958">
        <ele>259</ele>
        <time>2016-11-04T11:12:18Z</time>
      </trkpt>
      <trkpt lat="43.61402" lon="1.17958">
        <ele>259</ele>
        <time>2016-11-04T11:12:23Z</time>
      </trkpt>
      <trkpt lat="43.61404" lon="1.17959">
        <ele>259</ele>
        <time>2016-11-04T11:12:28Z</time>
      </trkpt>
      <trkpt lat="43.6141" lon="1.17965">
        <ele>259</ele>
        <time>2016-11-04T11:12:33Z</time>
      </trkpt>
      <trkpt lat="43.61414" lon="1.17968">
        <ele>259</ele>
        <time>2016-11-04T11:12:38Z</time>
      </trkpt>
      <trkpt lat="43.61417" lon="1.17978">
        <ele>259</ele>
        <time>2016-11-04T11:12:43Z</time>
      </trkpt>
      <trkpt lat="43.61423" lon="1.17984">
        <ele>259</ele>
        <time>2016-11-04T11:12:48Z</time>
      </trkpt>
      <trkpt lat="43.61427" lon="1.17988">
        <ele>259</ele>
        <time>2016-11-04T11:12:53Z</time>
      </trkpt>
      <trkpt lat="43.61433" lon="1.17989">
        <ele>259</ele>
        <time>2016-11-04T11:12:58Z</time>
      </trkpt>
      <trkpt lat="43.61437" lon="1.17996">
        <ele>259</ele>
        <time>2016-11-04T11:13:03Z</time>
      </trkpt>
      <trkpt lat="43.61442" lon="1.17998">
        <ele>259</ele>
        <time>2016-11-04T11:13:08Z</time>
      </trkpt>
      <trkpt lat="43.61448" lon="1.18006">
        <ele>259</ele>
        <time>2016-11-04T11:13:13Z</time>
      </trkpt>
      <trkpt lat="43.61452" lon="1.18013">
        <ele>259</ele>
        <time>2016-11-04T11:13:18Z</time>
      </trkpt>
      <trkpt lat="43.61458" lon="1.1802">
        <ele>257</ele>
        <time>2016-11-04T11:13:23Z</time>
      </trkpt>
      <trkpt lat="43.61459" lon="1.1803">
        <ele>257</ele>
        <time>2016-11-04T11:13:28Z</time>
      </trkpt>
      <trkpt lat="43.61461" lon="1.18034">
        <ele>257</ele>
        <time>2016-11-04T11:13:33Z</time>
      </trkpt>
      <trkpt lat="43.6146" lon="1.18039">
        <ele>257</ele>
        <time>2016-11-04T11:13:38Z</time>
      </trkpt>
      <trkpt lat="43.61465" lon="1.18046">
        <ele>257</ele>
        <time>2016-11-04T11:13:43Z</time>
      </trkpt>
      <trkpt lat="43.61468" lon="1.18057">
        <ele>257</ele>
        <time>2016-11-04T11:13:48Z</time>
      </trkpt>
      <trkpt lat="43.61473" lon="1.18059">
        <ele>257</ele>
        <time>2016-11-04T11:13:53Z</time>
      </trkpt>
      <trkpt lat="43.61476" lon="1.18061">
        <ele>257</ele>
        <time>2016-11-04T11:13:58Z</time>
      </trkpt>
      <trkpt lat="43.61481" lon="1.18059">
        <ele>257</ele>
        <time>2016-11-04T11:14:03Z</time>
      </trkpt>
      <trkpt lat="43.61488" lon="1.1806">
        <ele>257</ele>
        <time>2016-11-04T11:14:08Z</time>
      </trkpt>
      <trkpt lat="43.61493" lon="1.18061">
        <ele>257</ele>
        <time>2016-11-04T11:14:13Z</time>
      </trkpt>
      <trkpt lat="43.615" lon="1.18064">
        <ele>257</ele>
        <time>2016-11-04T11:14:18Z</time>
      </trkpt>
      <trkpt lat="43.6151" lon="1.18065">
        <ele>257</ele>
        <time>2016-11-04T11:14:23Z</time>
      </trkpt>
      <trkpt lat="43.61517" lon="1.18066">
        <ele>257</ele>
        <time>2016-11-04T11:14:28Z</time>
      </trkpt>
      <trkpt lat="43.61524" lon="1.18067">
        <ele>257</ele>
        <time>2016-11-04T11:14:33Z</time>
      </trkpt>
      <trkpt lat="43.61528" lon="1.18068">
        <ele>257</ele>
        <time>2016-11-04T11:14:38Z</time>
      </trkpt>
      <trkpt lat="43.61531" lon="1.18076">
        <ele>257</ele>
        <time>2016-11-04T11:14:43Z</time>
      </trkpt>
      <trkpt lat="43.61538" lon="1.18082">
        <ele>257</ele>
        <time>2016-11-04T11:14:48Z</time>
      </trkpt>
      <trkpt lat="43.61546" lon="1.18086">
        <ele>254</ele>
        <time>2016-11-04T11:14:53Z</time>
      </trkpt>
      <trkpt lat="43.61553" lon="1.18092">
        <ele>254</ele>
        <time>2016-11-04T11:14:58Z</time>
      </trkpt>
      <trkpt lat="43.61559" lon="1.18102">
        <ele>254</ele>
        <time>2016-11-04T11:15:03Z</time>
      </trkpt>
      <trkpt lat="43.61564" lon="1.18108">
        <ele>254</ele>
        <time>2016-11-04T11:15:08Z</time>
      </trkpt>
      <trkpt lat="43.61569" lon="1.18116">
        <ele>254</ele>
        <time>2016-11-04T11:15:13Z</time>
      </trkpt>
      <trkpt lat="43.61572" lon="1.18122">
        <ele>254</ele>
        <time>2016-11-04T11:15:18Z</time>
      </trkpt>
      <trkpt lat="43.61575" lon="1.18127">
        <ele>256</ele>
        <time>2016-11-04T11:15:23Z</time>
      </trkpt>
      <trkpt lat="43.61584" lon="1.1813">
        <ele>256</ele>
        <time>2016-11-04T11:15:28Z</time>
      </trkpt>
      <trkpt lat="43.61591" lon="1.18133">
        <ele>256</ele>
        <time>2016-11-04T11:15:33Z</time>
      </trkpt>
      <trkpt lat="43.61597" lon="1.18137">
        <ele>256</ele>
        <time>2016-11-04T11:15:38Z</time>
      </trkpt>
      <trkpt lat="43.61605" lon="1.18141">
        <ele>256</ele>
        <time>2016-11-04T11:15:43Z</time>
      </trkpt>
      <trkpt lat="43.61608" lon="1.1814">
        <ele>256</ele>
        <time>2016-11-04T11:15:48Z</time>
      </trkpt>
      <trkpt lat="43.61616" lon="1.1815">
        <ele>256</ele>
        <time>2016-11-04T11:15:53Z</time>
      </trkpt>
      <trkpt lat="43.61622" lon="1.18158">
        <ele>256</ele>
        <time>2016-11-04T11:15:58Z</time>
      </trkpt>
      <trkpt lat="43.61629" lon="1.18163">
        <ele>254</ele>
        <time>2016-11-04T11:16:03Z</time>
      </trkpt>
      <trkpt lat="43.61635" lon="1.18171">
        <ele>254</ele>
        <time>2016-11-04T11:16:08Z</time>
      </trkpt>
      <trkpt lat="43.61639" lon="1.18174">
        <ele>254</ele>
        <time>2016-11-04T11:16:13Z</time>
      </trkpt>
      <trkpt lat="43.61642" lon="1.18177">
        <ele>254</ele>
        <time>2016-11-04T11:16:18Z</time>
      </trkpt>
      <trkpt lat="43.61646" lon="1.18179">
        <ele>254</ele>
        <time>2016-11-04T11:16:23Z</time>
      </trkpt>
      <trkpt lat="43.61652" lon="1.18185">
        <ele>254</ele>
        <time>2016-11-04T11:16:28Z</time>
      </trkpt>
      <trkpt lat="43.61656" lon="1.18195">
        <ele>254</ele>
        <time>2016-11-04T11:16:33Z</time>
      </trkpt>
      <trkpt lat="43.61663" lon="1.18205">
        <ele>254</ele>
        <time>2016-11-04T11:16:38Z</time>
      </trkpt>
      <trkpt lat="43.61667" lon="1.18208">
        <ele>254</ele>
        <time>2016-11-04T11:16:43Z</time>
      </trkpt>
      <trkpt lat="43.61673" lon="1.1822">
        <ele>253</ele>
        <time>2016-11-04T11:16:48Z</time>
      </trkpt>
      <trkpt lat="43.61678" lon="1.18232">
        <ele>253</ele>
        <time>2016-11-04T11:16:53Z</time>
      </trkpt>
      <trkpt lat="43.61681" lon="1.18239">
        <ele>253</ele>
        <time>2016-11-04T11:16:58Z</time>
      </trkpt>
      <trkpt lat="43.61686" lon="1.1825">
        <ele>253</ele>
        <time>2016-11-04T11:17:03Z</time>
      </trkpt>
      <trkpt lat="43.61688" lon="1.1826">
        <ele>253</ele>
        <time>2016-11-04T11:17:08Z</time>
      </trkpt>
      <trkpt lat="43.61689" lon="1.18266">
        <ele>253</ele>
        <time>2016-11-04T11:17:13Z</time>
      </trkpt>
      <trkpt lat="43.61689" lon="1.18272">
        <ele>253</ele>
        <time>2016-11-04T11:17:18Z</time>
      </trkpt>
      <trkpt lat="43.61692" lon="1.18283">
        <ele>253</ele>
        <time>2016-11-04T11:17:23Z</time>
      </trkpt>
      <trkpt lat="43.61694" lon="1.18292">
        <ele>257</ele>
        <time>2016-11-04T11:17:28Z</time>
      </trkpt>
      <trkpt lat="43.61698" lon="1.18301">
        <ele>257</ele>
        <time>2016-11-04T11:17:33Z</time>
      </trkpt>
      <trkpt lat="43.61701" lon="1.1831">
        <ele>257</ele>
        <time>2016-11-04T11:17:38Z</time>
      </trkpt>
      <trkpt lat="43.61708" lon="1.1832">
        <ele>257</ele>
        <time>2016-11-04T11:17:43Z</time>
      </trkpt>
      <trkpt lat="43.61713" lon="1.1833">
        <ele>248</ele>
        <time>2016-11-04T11:17:48Z</time>
      </trkpt>
      <trkpt lat="43.61714" lon="1.18335">
        <ele>248</ele>
        <time>2016-11-04T11:17:53Z</time>
      </trkpt>
      <trkpt lat="43.61719" lon="1.18341">
        <ele>248</ele>
        <time>2016-11-04T11:17:58Z</time>
      </trkpt>
      <trkpt lat="43.61722" lon="1.18352">
        <ele>248</ele>
        <time>2016-11-04T11:18:03Z</time>
      </trkpt>
      <trkpt lat="43.61726" lon="1.18359">
        <ele>248</ele>
        <time>2016-11-04T11:18:08Z</time>
      </trkpt>
      <trkpt lat="43.61732" lon="1.18366">
        <ele>248</ele>
        <time>2016-11-04T11:18:13Z</time>
      </trkpt>
      <trkpt lat="43.61737" lon="1.18372">
        <ele>248</ele>
        <time>2016-11-04T11:18:18Z</time>
      </trkpt>
      <trkpt lat="43.61744" lon="1.18381">
        <ele>251</ele>
        <time>2016-11-04T11:18:23Z</time>
      </trkpt>
      <trkpt lat="43.61745" lon="1.18389">
        <ele>251</ele>
        <time>2016-11-04T11:18:28Z</time>
      </trkpt>
      <trkpt lat="43.61749" lon="1.18398">
        <ele>251</ele>
        <time>2016-11-04T11:18:33Z</time>
      </trkpt>
      <trkpt lat="43.61755" lon="1.18407">
        <ele>251</ele>
        <time>2016-11-04T11:18:38Z</time>
      </trkpt>
      <trkpt lat="43.61762" lon="1.18413">
        <ele>251</ele>
        <time>2016-11-04T11:18:43Z</time>
      </trkpt>
      <trkpt lat="43.61772" lon="1.18417">
        <ele>251</ele>
        <time>2016-11-04T11:18:48Z</time>
      </trkpt>
      <trkpt lat="43.61776" lon="1.1842">
        <ele>251</ele>
        <time>2016-11-04T11:18:53Z</time>
      </trkpt>
      <trkpt lat="43.61782" lon="1.18426">
        <ele>251</ele>
        <time>2016-11-04T11:18:58Z</time>
      </trkpt>
      <trkpt lat="43.61788" lon="1.18434">
        <ele>251</ele>
        <time>2016-11-04T11:19:03Z</time>
      </trkpt>
      <trkpt lat="43.61795" lon="1.1844">
        <ele>243</ele>
        <time>2016-11-04T11:19:08Z</time>
      </trkpt>
      <trkpt lat="43.61799" lon="1.18446">
        <ele>243</ele>
        <time>2016-11-04T11:19:13Z</time>
      </trkpt>
      <trkpt lat="43.61804" lon="1.18452">
        <ele>243</ele>
        <time>2016-11-04T11:19:18Z</time>
      </trkpt>
      <trkpt lat="43.61809" lon="1.18459">
        <ele>249</ele>
        <time>2016-11-04T11:19:23Z</time>
      </trkpt>
      <trkpt lat="43.61814" lon="1.18463">
        <ele>249</ele>
        <time>2016-11-04T11:19:28Z</time>
      </trkpt>
      <trkpt lat="43.61821" lon="1.1847">
        <ele>249</ele>
        <time>2016-11-04T11:19:33Z</time>
      </trkpt>
      <trkpt lat="43.61826" lon="1.18476">
        <ele>249</ele>
        <time>2016-11-04T11:19:38Z</time>
      </trkpt>
      <trkpt lat="43.61828" lon="1.18484">
        <ele>249</ele>
        <time>2016-11-04T11:19:43Z</time>
      </trkpt>
      <trkpt lat="43.61829" lon="1.1849">
        <ele>249</ele>
        <time>2016-11-04T11:19:48Z</time>
      </trkpt>
      <trkpt lat="43.61831" lon="1.18499">
        <ele>249</ele>
        <time>2016-11-04T11:19:53Z</time>
      </trkpt>
      <trkpt lat="43.61833" lon="1.1851">
        <ele>249</ele>
        <time>2016-11-04T11:19:58Z</time>
      </trkpt>
      <trkpt lat="43.61839" lon="1.18516">
        <ele>249</ele>
        <time>2016-11-04T11:20:03Z</time>
      </trkpt>
      <trkpt lat="43.6184" lon="1.18524">
        <ele>249</ele>
        <time>2016-11-04T11:20:08Z</time>
      </trkpt>
      <trkpt lat="43.6184" lon="1.18532">
        <ele>249</ele>
        <time>2016-11-04T11:20:13Z</time>
      </trkpt>
      <trkpt lat="43.61842" lon="1.18544">
        <ele>251</ele>
        <time>2016-11-04T11:20:18Z</time>
      </trkpt>
      <trkpt lat="43.61846" lon="1.18551">
        <ele>251</ele>
        <time>2016-11-04T11:20:23Z</time>
      </trkpt>
      <trkpt lat="43.61852" lon="1.18556">
        <ele>251</ele>
        <time>2016-11-04T11:20:28Z</time>
      </trkpt>
      <trkpt lat="43.61858" lon="1.18565">
        <ele>251</ele>
        <time>2016-11-04T11:20:33Z</time>
      </trkpt>
      <trkpt lat="43.61862" lon="1.1857">
        <ele>251</ele>
        <time>2016-11-04T11:20:38Z</time>
      </trkpt>
      <trkpt lat="43.61865" lon="1.18579">
        <ele>251</ele>
        <time>2016-11-04T11:20:43Z</time>
      </trkpt>
      <trkpt lat="43.61868" lon="1.18588">
        <ele>251</ele>
        <time>2016-11-04T11:20:48Z</time>
      </trkpt>
      <trkpt lat="43.61871" lon="1.18591">
        <ele>251</ele>
        <time>2016-11-04T11:20:53Z</time>
      </trkpt>
      <trkpt lat="43.61876" lon="1.18601">
        <ele>246</ele>
        <time>2016-11-04T11:20:58Z</time>
      </trkpt>
      <trkpt lat="43.61878" lon="1.1861">
        <ele>246</ele>
        <time>2016-11-04T11:21:03Z</time>
      </trkpt>
      <trkpt lat="43.61883" lon="1.18625">
        <ele>246</ele>
        <time>2016-11-04T11:21:08Z</time>
      </trkpt>
      <trkpt lat="43.61888" lon="1.18635">
        <ele>244</ele>
        <time>2016-11-04T11:21:13Z</time>
      </trkpt>
      <trkpt lat="43.61893" lon="1.18651">
        <ele>244</ele>
        <time>2016-11-04T11:21:18Z</time>
      </trkpt>
      <trkpt lat="43.61893" lon="1.18657">
        <ele>244</ele>
        <time>2016-11-04T11:21:23Z</time>
      </trkpt>
      <trkpt lat="43.61893" lon="1.18665">
        <ele>244</ele>
        <time>2016-11-04T11:21:28Z</time>
      </trkpt>
      <trkpt lat="43.61895" lon="1.18677">
        <ele>244</ele>
        <time>2016-11-04T11:21:33Z</time>
      </trkpt>
      <trkpt lat="43.61896" lon="1.18687">
        <ele>244</ele>
        <time>2016-11-04T11:21:38Z</time>
      </trkpt>
      <trkpt lat="43.61892" lon="1.18694">
        <ele>244</ele>
        <time>2016-11-04T11:21:43Z</time>
      </trkpt>
      <trkpt lat="43.61888" lon="1.187">
        <ele>244</ele>
        <time>2016-11-04T11:21:48Z</time>
      </trkpt>
      <trkpt lat="43.61884" lon="1.18708">
        <ele>244</ele>
        <time>2016-11-04T11:21:53Z</time>
      </trkpt>
      <trkpt lat="43.61879" lon="1.18719">
        <ele>245</ele>
        <time>2016-11-04T11:21:58Z</time>
      </trkpt>
      <trkpt lat="43.61877" lon="1.18728">
        <ele>245</ele>
        <time>2016-11-04T11:22:03Z</time>
      </trkpt>
      <trkpt lat="43.61876" lon="1.18734">
        <ele>245</ele>
        <time>2016-11-04T11:22:08Z</time>
      </trkpt>
      <trkpt lat="43.61875" lon="1.18745">
        <ele>251</ele>
        <time>2016-11-04T11:22:13Z</time>
      </trkpt>
      <trkpt lat="43.61873" lon="1.1875">
        <ele>251</ele>
        <time>2016-11-04T11:22:18Z</time>
      </trkpt>
      <trkpt lat="43.61869" lon="1.18759">
        <ele>251</ele>
        <time>2016-11-04T11:22:23Z</time>
      </trkpt>
      <trkpt lat="43.61867" lon="1.18768">
        <ele>251</ele>
        <time>2016-11-04T11:22:28Z</time>
      </trkpt>
      <trkpt lat="43.61864" lon="1.18778">
        <ele>251</ele>
        <time>2016-11-04T11:22:33Z</time>
      </trkpt>
      <trkpt lat="43.61861" lon="1.18787">
        <ele>251</ele>
        <time>2016-11-04T11:22:38Z</time>
      </trkpt>
      <trkpt lat="43.61857" lon="1.18796">
        <ele>247</ele>
        <time>2016-11-04T11:22:43Z</time>
      </trkpt>
      <trkpt lat="43.61854" lon="1.18808">
        <ele>247</ele>
        <time>2016-11-04T11:22:48Z</time>
      </trkpt>
      <trkpt lat="43.61852" lon="1.18816">
        <ele>247</ele>
        <time>2016-11-04T11:22:53Z</time>
      </trkpt>
      <trkpt lat="43.61848" lon="1.18825">
        <ele>247</ele>
        <time>2016-11-04T11:22:58Z</time>
      </trkpt>
      <trkpt lat="43.61844" lon="1.18835">
        <ele>247</ele>
        <time>2016-11-04T11:23:03Z</time>
      </trkpt>
      <trkpt lat="43.61842" lon="1.18843">
        <ele>247</ele>
        <time>2016-11-04T11:23:08Z</time>
      </trkpt>
      <trkpt lat="43.61839" lon="1.18856">
        <ele>247</ele>
        <time>2016-11-04T11:23:13Z</time>
      </trkpt>
      <trkpt lat="43.61841" lon="1.18867">
        <ele>247</ele>
        <time>2016-11-04T11:23:18Z</time>
      </trkpt>
      <trkpt lat="43.61842" lon="1.18876">
        <ele>246</ele>
        <time>2016-11-04T11:23:23Z</time>
      </trkpt>
      <trkpt lat="43.61843" lon="1.18887">
        <ele>246</ele>
        <time>2016-11-04T11:23:28Z</time>
      </trkpt>
      <trkpt lat="43.61839" lon="1.18892">
        <ele>246</ele>
        <time>2016-11-04T11:23:33Z</time>
      </trkpt>
      <trkpt lat="43.61837" lon="1.18898">
        <ele>246</ele>
        <time>2016-11-04T11:23:38Z</time>
      </trkpt>
      <trkpt lat="43.61834" lon="1.18905">
        <ele>246</ele>
        <time>2016-11-04T11:23:43Z</time>
      </trkpt>
      <trkpt lat="43.61831" lon="1.18914">
        <ele>246</ele>
        <time>2016-11-04T11:23:48Z</time>
      </trkpt>
      <trkpt lat="43.61827" lon="1.18925">
        <ele>246</ele>
        <time>2016-11-04T11:23:53Z</time>
      </trkpt>
      <trkpt lat="43.61826" lon="1.18934">
        <ele>246</ele>
        <time>2016-11-04T11:23:58Z</time>
      </trkpt>
      <trkpt lat="43.61824" lon="1.18949">
        <ele>246</ele>
        <time>2016-11-04T11:24:03Z</time>
      </trkpt>
      <trkpt lat="43.61823" lon="1.18958">
        <ele>246</ele>
        <time>2016-11-04T11:24:08Z</time>
      </trkpt>
      <trkpt lat="43.6182" lon="1.18971">
        <ele>242</ele>
        <time>2016-11-04T11:24:13Z</time>
      </trkpt>
      <trkpt lat="43.61821" lon="1.18981">
        <ele>242</ele>
        <time>2016-11-04T11:24:18Z</time>
      </trkpt>
      <trkpt lat="43.61823" lon="1.18994">
        <ele>242</ele>
        <time>2016-11-04T11:24:23Z</time>
      </trkpt>
      <trkpt lat="43.61824" lon="1.19006">
        <ele>242</ele>
        <time>2016-11-04T11:24:28Z</time>
      </trkpt>
      <trkpt lat="43.61825" lon="1.19016">
        <ele>242</ele>
        <time>2016-11-04T11:24:33Z</time>
      </trkpt>
      <trkpt lat="43.61827" lon="1.19025">
        <ele>242</ele>
        <time>2016-11-04T11:24:38Z</time>
      </trkpt>
      <trkpt lat="43.61825" lon="1.1903">
        <ele>242</ele>
        <time>2016-11-04T11:24:43Z</time>
      </trkpt>
      <trkpt lat="43.61823" lon="1.19034">
        <ele>242</ele>
        <time>2016-11-04T11:24:48Z</time>
      </trkpt>
      <trkpt lat="43.61819" lon="1.19039">
        <ele>242</ele>
        <time>2016-11-04T11:24:53Z</time>
      </trkpt>
      <trkpt lat="43.61816" lon="1.19049">
        <ele>237</ele>
        <time>2016-11-04T11:24:58Z</time>
      </trkpt>
      <trkpt lat="43.61814" lon="1.19058">
        <ele>237</ele>
        <time>2016-11-04T11:25:03Z</time>
      </trkpt>
      <trkpt lat="43.61813" lon="1.19066">
        <ele>237</ele>
        <time>2016-11-04T11:25:08Z</time>
      </trkpt>
      <trkpt lat="43.6181" lon="1.19071">
        <ele>237</ele>
        <time>2016-11-04T11:25:13Z</time>
      </trkpt>
      <trkpt lat="43.61808" lon="1.19076">
        <ele>237</ele>
        <time>2016-11-04T11:25:18Z</time>
      </trkpt>
      <trkpt lat="43.61808" lon="1.19086">
        <ele>237</ele>
        <time>2016-11-04T11:25:23Z</time>
      </trkpt>
      <trkpt lat="43.61803" lon="1.19102">
        <ele>237</ele>
        <time>2016-11-04T11:25:28Z</time>
      </trkpt>
      <trkpt lat="43.618" lon="1.19112">
        <ele>237</ele>
        <time>2016-11-04T11:25:33Z</time>
      </trkpt>
      <trkpt lat="43.618" lon="1.19122">
        <ele>237</ele>
        <time>2016-11-04T11:25:38Z</time>
      </trkpt>
      <trkpt lat="43.61801" lon="1.19135">
        <ele>237</ele>
        <time>2016-11-04T11:25:43Z</time>
      </trkpt>
      <trkpt lat="43.61802" lon="1.19146">
        <ele>237</ele>
        <time>2016-11-04T11:25:48Z</time>
      </trkpt>
      <trkpt lat="43.618" lon="1.1916">
        <ele>237</ele>
        <time>2016-11-04T11:25:53Z</time>
      </trkpt>
      <trkpt lat="43.61798" lon="1.1917">
        <ele>237</ele>
        <time>2016-11-04T11:25:58Z</time>
      </trkpt>
      <trkpt lat="43.61797" lon="1.19178">
        <ele>237</ele>
        <time>2016-11-04T11:26:03Z</time>
      </trkpt>
      <trkpt lat="43.61792" lon="1.19184">
        <ele>237</ele>
        <time>2016-11-04T11:26:08Z</time>
      </trkpt>
      <trkpt lat="43.61787" lon="1.19189">
        <ele>230</ele>
        <time>2016-11-04T11:26:13Z</time>
      </trkpt>
      <trkpt lat="43.61782" lon="1.19192">
        <ele>230</ele>
        <time>2016-11-04T11:26:18Z</time>
      </trkpt>
      <trkpt lat="43.61776" lon="1.19193">
        <ele>230</ele>
        <time>2016-11-04T11:26:23Z</time>
      </trkpt>
      <trkpt lat="43.61769" lon="1.19197">
        <ele>230</ele>
        <time>2016-11-04T11:26:28Z</time>
      </trkpt>
      <trkpt lat="43.61762" lon="1.19201">
        <ele>230</ele>
        <time>2016-11-04T11:26:33Z</time>
      </trkpt>
      <trkpt lat="43.61757" lon="1.19207">
        <ele>230</ele>
        <time>2016-11-04T11:26:38Z</time>
      </trkpt>
      <trkpt lat="43.61751" lon="1.19218">
        <ele>232</ele>
        <time>2016-11-04T11:26:43Z</time>
      </trkpt>
      <trkpt lat="43.61749" lon="1.19228">
        <ele>232</ele>
        <time>2016-11-04T11:26:48Z</time>
      </trkpt>
      <trkpt lat="43.61742" lon="1.19236">
        <ele>232</ele>
        <time>2016-11-04T11:26:53Z</time>
      </trkpt>
      <trkpt lat="43.61736" lon="1.19245">
        <ele>232</ele>
        <time>2016-11-04T11:26:58Z</time>
      </trkpt>
      <trkpt lat="43.61732" lon="1.19254">
        <ele>232</ele>
        <time>2016-11-04T11:27:03Z</time>
      </trkpt>
      <trkpt lat="43.61724" lon="1.19256">
        <ele>232</ele>
        <time>2016-11-04T11:27:08Z</time>
      </trkpt>
      <trkpt lat="43.61717" lon="1.19261">
        <ele>232</ele>
        <time>2016-11-04T11:27:13Z</time>
      </trkpt>
      <trkpt lat="43.61711" lon="1.19265">
        <ele>232</ele>
        <time>2016-11-04T11:27:18Z</time>
      </trkpt>
      <trkpt lat="43.61704" lon="1.19263">
        <ele>235</ele>
        <time>2016-11-04T11:27:23Z</time>
      </trkpt>
      <trkpt lat="43.61694" lon="1.19272">
        <ele>235</ele>
        <time>2016-11-04T11:27:28Z</time>
      </trkpt>
      <trkpt lat="43.61688" lon="1.1928">
        <ele>235</ele>
        <time>2016-11-04T11:27:33Z</time>
      </trkpt>
      <trkpt lat="43.61683" lon="1.1929">
        <ele>235</ele>
        <time>2016-11-04T11:27:38Z</time>
      </trkpt>
      <trkpt lat="43.61678" lon="1.19297">
        <ele>236</ele>
        <time>2016-11-04T11:27:43Z</time>
      </trkpt>
      <trkpt lat="43.61672" lon="1.19305">
        <ele>236</ele>
        <time>2016-11-04T11:27:48Z</time>
      </trkpt>
      <trkpt lat="43.61666" lon="1.19314">
        <ele>236</ele>
        <time>2016-11-04T11:27:53Z</time>
      </trkpt>
      <trkpt lat="43.6166" lon="1.19321">
        <ele>236</ele>
        <time>2016-11-04T11:27:58Z</time>
      </trkpt>
      <trkpt lat="43.61656" lon="1.19333">
        <ele>236</ele>
        <time>2016-11-04T11:28:03Z</time>
      </trkpt>
      <trkpt lat="43.61651" lon="1.19343">
        <ele>236</ele>
        <time>2016-11-04T11:28:08Z</time>
      </trkpt>
      <trkpt lat="43.61646" lon="1.19354">
        <ele>236</ele>
        <time>2016-11-04T11:28:13Z</time>
      </trkpt>
      <trkpt lat="43.61642" lon="1.19364">
        <ele>236</ele>
        <time>2016-11-04T11:28:18Z</time>
      </trkpt>
      <trkpt lat="43.61637" lon="1.1937">
        <ele>236</ele>
        <time>2016-11-04T11:28:23Z</time>
      </trkpt>
      <trkpt lat="43.61632" lon="1.1938">
        <ele>236</ele>
        <time>2016-11-04T11:28:28Z</time>
      </trkpt>
      <trkpt lat="43.61628" lon="1.19389">
        <ele>236</ele>
        <time>2016-11-04T11:28:33Z</time>
      </trkpt>
      <trkpt lat="43.61626" lon="1.19397">
        <ele>236</ele>
        <time>2016-11-04T11:28:38Z</time>
      </trkpt>
      <trkpt lat="43.6162" lon="1.19407">
        <ele>237</ele>
        <time>2016-11-04T11:28:43Z</time>
      </trkpt>
      <trkpt lat="43.61614" lon="1.19419">
        <ele>237</ele>
        <time>2016-11-04T11:28:48Z</time>
      </trkpt>
      <trkpt lat="43.61609" lon="1.19429">
        <ele>237</ele>
        <time>2016-11-04T11:28:53Z</time>
      </trkpt>
      <trkpt lat="43.61605" lon="1.19439">
        <ele>237</ele>
        <time>2016-11-04T11:28:58Z</time>
      </trkpt>
      <trkpt lat="43.61601" lon="1.19446">
        <ele>237</ele>
        <time>2016-11-04T11:29:03Z</time>
      </trkpt>
      <trkpt lat="43.61596" lon="1.19455">
        <ele>237</ele>
        <time>2016-11-04T11:29:08Z</time>
      </trkpt>
      <trkpt lat="43.61593" lon="1.19462">
        <ele>237</ele>
        <time>2016-11-04T11:29:13Z</time>
      </trkpt>
      <trkpt lat="43.6159" lon="1.19471">
        <ele>237</ele>
        <time>2016-11-04T11:29:18Z</time>
      </trkpt>
      <trkpt lat="43.61586" lon="1.19483">
        <ele>237</ele>
        <time>2016-11-04T11:29:23Z</time>
      </trkpt>
      <trkpt lat="43.61582" lon="1.19493">
        <ele>237</ele>
        <time>2016-11-04T11:29:28Z</time>
      </trkpt>
      <trkpt lat="43.61578" lon="1.19504">
        <ele>237</ele>
        <time>2016-11-04T11:29:33Z</time>
      </trkpt>
      <trkpt lat="43.61575" lon="1.19514">
        <ele>237</ele>
        <time>2016-11-04T11:29:38Z</time>
      </trkpt>
      <trkpt lat="43.61571" lon="1.19525">
        <ele>237</ele>
        <time>2016-11-04T11:29:43Z</time>
      </trkpt>
      <trkpt lat="43.61569" lon="1.19532">
        <ele>237</ele>
        <time>2016-11-04T11:29:48Z</time>
      </trkpt>
      <trkpt lat="43.61564" lon="1.19541">
        <ele>237</ele>
        <time>2016-11-04T11:29:53Z</time>
      </trkpt>
      <trkpt lat="43.61558" lon="1.19547">
        <ele>235</ele>
        <time>2016-11-04T11:29:58Z</time>
      </trkpt>
      <trkpt lat="43.61552" lon="1.19554">
        <ele>235</ele>
        <time>2016-11-04T11:30:03Z</time>
      </trkpt>
      <trkpt lat="43.6155" lon="1.19564">
        <ele>235</ele>
        <time>2016-11-04T11:30:08Z</time>
      </trkpt>
      <trkpt lat="43.61546" lon="1.19574">
        <ele>235</ele>
        <time>2016-11-04T11:30:13Z</time>
      </trkpt>
      <trkpt lat="43.61543" lon="1.1958">
        <ele>235</ele>
        <time>2016-11-04T11:30:18Z</time>
      </trkpt>
      <trkpt lat="43.61537" lon="1.19592">
        <ele>236</ele>
        <time>2016-11-04T11:30:23Z</time>
      </trkpt>
      <trkpt lat="43.61531" lon="1.19602">
        <ele>236</ele>
        <time>2016-11-04T11:30:28Z</time>
      </trkpt>
      <trkpt lat="43.61528" lon="1.19607">
        <ele>236</ele>
        <time>2016-11-04T11:30:33Z</time>
      </trkpt>
      <trkpt lat="43.61522" lon="1.19618">
        <ele>236</ele>
        <time>2016-11-04T11:30:38Z</time>
      </trkpt>
      <trkpt lat="43.6152" lon="1.19629">
        <ele>235</ele>
        <time>2016-11-04T11:30:43Z</time>
      </trkpt>
      <trkpt lat="43.61516" lon="1.19638">
        <ele>235</ele>
        <time>2016-11-04T11:30:48Z</time>
      </trkpt>
      <trkpt lat="43.61511" lon="1.19645">
        <ele>235</ele>
        <time>2016-11-04T11:30:53Z</time>
      </trkpt>
      <trkpt lat="43.61508" lon="1.19653">
        <ele>235</ele>
        <time>2016-11-04T11:30:58Z</time>
      </trkpt>
      <trkpt lat="43.61504" lon="1.19665">
        <ele>235</ele>
        <time>2016-11-04T11:31:03Z</time>
      </trkpt>
      <trkpt lat="43.615" lon="1.19672">
        <ele>235</ele>
        <time>2016-11-04T11:31:08Z</time>
      </trkpt>
      <trkpt lat="43.61495" lon="1.19683">
        <ele>235</ele>
        <time>2016-11-04T11:31:13Z</time>
      </trkpt>
      <trkpt lat="43.61492" lon="1.19696">
        <ele>235</ele>
        <time>2016-11-04T11:31:18Z</time>
      </trkpt>
      <trkpt lat="43.61488" lon="1.19704">
        <ele>235</ele>
        <time>2016-11-04T11:31:23Z</time>
      </trkpt>
      <trkpt lat="43.61484" lon="1.19709">
        <ele>232</ele>
        <time>2016-11-04T11:31:28Z</time>
      </trkpt>
      <trkpt lat="43.6148" lon="1.1972">
        <ele>232</ele>
        <time>2016-11-04T11:31:33Z</time>
      </trkpt>
      <trkpt lat="43.61474" lon="1.19728">
        <ele>232</ele>
        <time>2016-11-04T11:31:38Z</time>
      </trkpt>
      <trkpt lat="43.61468" lon="1.19731">
        <ele>232</ele>
        <time>2016-11-04T11:31:43Z</time>
      </trkpt>
      <trkpt lat="43.61463" lon="1.19734">
        <ele>232</ele>
        <time>2016-11-04T11:31:48Z</time>
      </trkpt>
      <trkpt lat="43.61461" lon="1.19738">
        <ele>232</ele>
        <time>2016-11-04T11:31:53Z</time>
      </trkpt>
      <trkpt lat="43.61457" lon="1.19738">
        <ele>236</ele>
        <time>2016-11-04T11:31:58Z</time>
      </trkpt>
      <trkpt lat="43.61448" lon="1.19741">
        <ele>236</ele>
        <time>2016-11-04T11:32:03Z</time>
      </trkpt>
      <trkpt lat="43.61442" lon="1.19747">
        <ele>236</ele>
        <time>2016-11-04T11:32:08Z</time>
      </trkpt>
      <trkpt lat="43.61436" lon="1.19754">
        <ele>236</ele>
        <time>2016-11-04T11:32:13Z</time>
      </trkpt>
      <trkpt lat="43.61432" lon="1.19762">
        <ele>236</ele>
        <time>2016-11-04T11:32:18Z</time>
      </trkpt>
      <trkpt lat="43.61427" lon="1.19769">
        <ele>236</ele>
        <time>2016-11-04T11:32:23Z</time>
      </trkpt>
      <trkpt lat="43.6142" lon="1.19774">
        <ele>236</ele>
        <time>2016-11-04T11:32:28Z</time>
      </trkpt>
      <trkpt lat="43.61415" lon="1.19784">
        <ele>236</ele>
        <time>2016-11-04T11:32:33Z</time>
      </trkpt>
      <trkpt lat="43.6141" lon="1.19794">
        <ele>230</ele>
        <time>2016-11-04T11:32:38Z</time>
      </trkpt>
      <trkpt lat="43.61407" lon="1.19801">
        <ele>230</ele>
        <time>2016-11-04T11:32:43Z</time>
      </trkpt>
      <trkpt lat="43.61405" lon="1.19807">
        <ele>230</ele>
        <time>2016-11-04T11:32:48Z</time>
      </trkpt>
      <trkpt lat="43.61402" lon="1.19815">
        <ele>230</ele>
        <time>2016-11-04T11:32:53Z</time>
      </trkpt>
      <trkpt lat="43.61399" lon="1.19826">
        <ele>230</ele>
        <time>2016-11-04T11:32:58Z</time>
      </trkpt>
      <trkpt lat="43.61399" lon="1.1983">
        <ele>230</ele>
        <time>2016-11-04T11:33:03Z</time>
      </trkpt>
      <trkpt lat="43.614" lon="1.19828">
        <ele>230</ele>
        <time>2016-11-04T11:33:08Z</time>
      </trkpt>
      <trkpt lat="43.614" lon="1.1983">
        <ele>230</ele>
        <time>2016-11-04T11:33:13Z</time>
      </trkpt>
      <trkpt lat="43.614" lon="1.1983">
        <ele>230</ele>
        <time>2016-11-04T11:33:18Z</time>
      </trkpt>
    </trkseg>
  </trk>
</gpx>